• Join FlightAware (Why Join?)
  • Login
  • US Flag 
08:09PM EDT


 

Airport Tracker/Info


-or-


 

Live Flight TrackerFlight Track Log ✈ MSR967 ✈ 24-May-2013 ✈ OMSJ / SHJ - HECA / CAI

Flight Track Log - Related Links

Times and Time Zones

All times are in EDT time to prevent confusion due to time zone crossing. See the MSR967 flight status page for this flight to view local times or setup timezone preferences in your user account.

Time Position Orientation Groundspeed Altitude Reporting Facility
EDT Latitude Longitude Course Direction KTS MPH feet Rate Location/Type
05:30PM 25.3150 55.4830 302° West 192 221 900  Level FlightAware
05:30PM 25.3180 55.4770 299° West 185 213 1,400 2,040 Climbing FlightAware
05:31PM 25.3300 55.4550 301° West 199 229 2,100 1,500 Climbing FlightAware
05:31PM 25.3410 55.4360 303° West 221 254 2,400 360 Climbing FlightAware
05:31PM 25.3540 55.4100 299° West 225 259 2,400 2,400 Level FlightAware
05:32PM 25.3760 55.3700 301° West 227 261 5,000 3,240 Climbing FlightAware
05:32PM 25.3920 55.3400 301° West 262 302 5,400 1,020 Climbing FlightAware
05:33PM 25.3950 55.3240 282° West 263 303 5,700 1,200 Climbing FlightAware
05:33PM 25.3830 55.2860 251° West 291 335 6,200 960 Climbing FlightAware
05:34PM 25.3640 55.2430 244° Southwest 320 368 6,600 840 Climbing FlightAware
05:34PM 25.3500 55.2110 244° Southwest 344 396 6,900 2,460 Climbing FlightAware
05:35PM 25.2990 55.0930 244° Southwest 312 359 10,500 2,820 Climbing FlightAware
05:36PM 25.2740 55.0340 245° Southwest 297 342 12,600 1,800 Climbing FlightAware
05:37PM 25.2480 54.9750 244° Southwest 334 384 13,100 720 Climbing FlightAware
05:37PM 25.2260 54.9160 248° West 362 417 13,500 1,080 Climbing FlightAware
05:38PM 25.2310 54.8680 277° West 363 418 14,200 1,620 Climbing FlightAware
05:38PM 25.2490 54.7980 286° West 371 427 15,300 1,500 Climbing FlightAware
05:39PM 25.2680 54.7200 285° West 378 435 16,400 1,080 Climbing FlightAware
05:42PM 25.3556 54.4299 289° West  Level Estimated
05:43PM 25.3900 54.3152 288° West  Level Estimated
05:44PM 25.4244 54.2005 288° West  Level Estimated
05:45PM 25.4586 54.0857 288° West  Level Estimated
05:46PM 25.4928 53.9709 288° West  Level Estimated
05:47PM 25.5269 53.8560 288° West  Level Estimated
05:48PM 25.5608 53.7410 288° West  Level Estimated
05:49PM 25.5947 53.6260 288° West  Level Estimated
05:50PM 25.6285 53.5109 288° West  Level Estimated
05:51PM 25.6622 53.3957 288° West  Level Estimated
05:52PM 25.6959 53.2805 288° West  Level Estimated
05:53PM 25.7294 53.1652 288° West  Level Estimated
05:53PM 25.7480 53.0150 288° West 410 472 32,100  Level FlightAware
05:54PM 25.7690 52.9240 284° West 397 457 32,900 1,020 Climbing FlightAware
05:54PM 25.7790 52.8540 279° West 391 450 33,500 840 Climbing FlightAware
05:55PM 25.7900 52.7820 280° West 389 448 34,000 300 Climbing FlightAware
05:56PM 25.8070 52.6690 280° West 403 464 34,000  Level FlightAware
05:57PM 25.8230 52.5580 279° West 413 475 34,000  Level FlightAware
05:57PM 25.8380 52.4830 283° West 414 476 34,000  Level FlightAware
05:58PM 25.8730 52.3850 292° West 421 484 34,000  Level FlightAware
06:00PM 25.9690 52.1890 299° West 433 498 34,000  Level FlightAware
06:01PM 26.0400 52.0430 298° West 427 491 34,000  Level FlightAware
06:02PM 26.1070 51.9060 299° West 425 489 34,000  Level FlightAware
06:04PM 26.1720 51.7720 298° West 428 493 34,000  Level FlightAware
06:05PM 26.2350 51.6320 297° West 429 494 34,000  Level FlightAware
06:06PM 26.2980 51.4950 297° West 428 493 34,000  Level FlightAware
06:07PM 26.3590 51.3570 296° West 423 487 34,000  Level FlightAware
06:08PM 26.4160 51.2190 295° West 424 488 34,000  Level FlightAware
06:09PM 26.4740 51.0780 295° West 425 489 34,000  Level FlightAware
06:11PM 26.5300 50.9390 294° West 422 486 34,000  Level FlightAware
06:12PM 26.5790 50.7970 291° West 419 482 34,000  Level FlightAware
06:12PM 26.6030 50.7260 291° West 420 483 34,000  Level FlightAware
06:13PM 26.6380 50.6240 291° West 421 484 34,000  Level FlightAware
06:14PM 26.6630 50.5500 291° West 421 484 34,000  Level FlightAware
06:14PM 26.6850 50.4800 289° West 421 484 34,000  Level FlightAware
06:15PM 26.7170 50.3900 292° West 419 482 34,000  Level FlightAware
06:16PM 26.7390 50.3030 286° West 419 482 34,000  Level FlightAware
06:17PM 26.7520 50.2120 279° West 420 483 34,000  Level FlightAware
06:17PM 26.7410 50.1400 260° West 405 466 34,000  Level FlightAware
06:18PM 26.7400 50.0740 269° West 404 465 34,000  Level FlightAware
06:18PM 26.7380 49.9850 269° West 404 465 34,000  Level FlightAware
06:19PM 26.7370 49.9130 269° West 404 465 34,000  Level FlightAware
06:20PM 26.7360 49.8420 269° West 404 465 34,000  Level FlightAware
06:21PM 26.7270 49.6960 266° West 412 474 34,000  Level FlightAware
06:21PM 26.7250 49.6240 268° West 410 472 34,000  Level FlightAware
06:22PM 26.7200 49.4980 267° West 410 472 34,000  Level FlightAware
06:23PM 26.7170 49.4030 268° West 409 471 34,000  Level FlightAware
06:24PM 26.7170 49.3160 270° West 411 473 34,000  Level FlightAware
06:24PM 26.7230 49.2310 275° West 411 473 34,000  Level FlightAware
06:25PM 26.7300 49.1380 275° West 411 473 34,000  Level FlightAware
06:26PM 26.7370 49.0420 275° West 411 473 34,000  Level FlightAware
06:26PM 26.7420 48.9620 274° West 411 473 34,000  Level FlightAware
06:27PM 26.7490 48.8620 275° West 411 473 34,000  Level FlightAware
06:28PM 26.7540 48.7780 274° West 411 473 34,000  Level FlightAware
06:28PM 26.7600 48.6940 275° West 411 473 34,000  Level FlightAware
06:29PM 26.7660 48.5970 274° West 414 476 34,000  Level FlightAware
06:30PM 26.7720 48.5110 274° West 414 476 34,000  Level FlightAware
06:31PM 26.7780 48.4140 274° West 416 479 34,000  Level FlightAware
06:31PM 26.7840 48.3280 274° West 418 481 34,000  Level FlightAware
06:32PM 26.7890 48.2460 274° West 420 483 34,000  Level FlightAware
06:33PM 26.7950 48.1450 274° West 421 484 34,000  Level FlightAware
06:33PM 26.8010 48.0590 274° West 421 484 34,000  Level FlightAware
06:34PM 26.8070 47.9600 274° West 421 484 34,000  Level FlightAware
06:35PM 26.8120 47.8730 274° West 421 484 34,000  Level FlightAware
06:35PM 26.8180 47.7850 274° West 421 484 34,000  Level FlightAware
06:36PM 26.8230 47.6870 273° West 422 486 34,000  Level FlightAware
06:37PM 26.8290 47.6000 274° West 423 487 34,000  Level FlightAware
06:38PM 26.8350 47.5020 274° West 424 488 34,000  Level FlightAware
06:38PM 26.8400 47.4140 274° West 424 488 34,000  Level FlightAware
06:39PM 26.8450 47.3150 273° West 425 489 34,000  Level FlightAware
06:40PM 26.8500 47.2270 274° West 425 489 34,000  Level FlightAware
06:40PM 26.8560 47.1300 274° West 425 489 34,000  Level FlightAware
06:41PM 26.8610 47.0410 274° West 424 488 34,000  Level FlightAware
06:42PM 26.8660 46.9540 274° West 424 488 34,000  Level FlightAware
06:43PM 26.8710 46.8550 273° West 423 487 34,000  Level FlightAware
06:43PM 26.8760 46.7680 274° West 423 487 34,000  Level FlightAware
06:44PM 26.8810 46.6690 273° West 424 488 34,000  Level FlightAware
06:45PM 26.8860 46.5820 274° West 424 488 34,000  Level FlightAware
06:45PM 26.8910 46.4930 274° West 425 489 34,000  Level FlightAware
06:46PM 26.8960 46.3940 273° West 427 491 34,000  Level FlightAware
06:47PM 26.9080 46.3080 279° West 428 493 34,000  Level FlightAware
06:47PM 26.9230 46.2080 280° West 438 504 34,000  Level FlightAware
06:48PM 26.9360 46.1180 279° West 443 510 34,000  Level FlightAware
06:49PM 26.9490 46.0270 279° West 442 509 34,000  Level FlightAware
06:50PM 26.9640 45.9250 279° West 443 510 34,000  Level FlightAware
06:50PM 26.9770 45.8350 279° West 443 510 34,000  Level FlightAware
06:51PM 26.9900 45.7430 279° West 444 511 34,000  Level FlightAware
06:52PM 27.0040 45.6420 279° West 445 512 34,000  Level FlightAware
06:52PM 27.0170 45.5490 279° West 444 511 34,000  Level FlightAware
06:53PM 27.0320 45.4480 279° West 444 511 34,000  Level FlightAware
06:54PM 27.0430 45.3560 278° West 445 512 34,000  Level FlightAware
06:54PM 27.0500 45.2910 277° West 444 511 34,000  Level FlightAware
06:55PM 27.0590 45.1930 276° West 444 511 34,000  Level FlightAware
06:57PM 27.0890 44.9410 278° West 34,000  Level FlightAware
06:57PM 27.0970 44.8660 277° West 34,000  Level FlightAware
07:00PM 27.1664 44.6184 288° West  Level Estimated
07:01PM 27.1990 44.5013 287° West  Level Estimated
07:02PM 27.2315 44.3841 287° West  Level Estimated
07:03PM 27.2639 44.2668 287° West  Level Estimated
07:04PM 27.2963 44.1495 287° West  Level Estimated
07:05PM 27.3285 44.0322 287° West  Level Estimated
07:06PM 27.3606 43.9147 287° West  Level Estimated
07:07PM 27.3927 43.7972 287° West  Level Estimated
07:08PM 27.4246 43.6796 287° West  Level Estimated
07:09PM 27.4564 43.5620 287° West  Level Estimated
07:10PM 27.4882 43.4443 287° West  Level Estimated
07:11PM 27.5198 43.3265 287° West  Level Estimated
07:12PM 27.5514 43.2086 287° West  Level Estimated
07:13PM 27.5828 43.0907 287° West  Level Estimated
07:14PM 27.6141 42.9728 287° West  Level Estimated
07:15PM 27.6454 42.8547 287° West  Level Estimated
07:16PM 27.6765 42.7366 287° West  Level Estimated
07:17PM 27.7076 42.6184 287° West  Level Estimated
07:18PM 27.7385 42.5001 286° West  Level Estimated
07:19PM 27.7694 42.3818 286° West  Level Estimated
07:20PM 27.8001 42.2634 286° West  Level Estimated
07:21PM 27.8307 42.1450 286° West  Level Estimated
07:22PM 27.8613 42.0265 286° West  Level Estimated
07:23PM 27.8917 41.9079 286° West  Level Estimated
07:24PM 27.9220 41.7892 286° West  Level Estimated
07:25PM 27.9523 41.6705 286° West  Level Estimated
07:26PM 27.9824 41.5517 286° West  Level Estimated
07:27PM 28.0124 41.4329 286° West  Level Estimated
07:28PM 28.0424 41.3139 286° West  Level Estimated
07:29PM 28.0722 41.1950 286° West  Level Estimated
07:30PM 28.1019 41.0759 286° West  Level Estimated
07:31PM 28.1315 40.9568 286° West  Level Estimated
07:32PM 28.1610 40.8376 286° West  Level Estimated
07:33PM 28.1905 40.7183 286° West  Level Estimated
07:34PM 28.2198 40.5990 286° West  Level Estimated
07:35PM 28.2490 40.4797 286° West  Level Estimated
07:36PM 28.2781 40.3602 285° West  Level Estimated
07:37PM 28.3071 40.2407 285° West  Level Estimated
07:38PM 28.3360 40.1211 285° West  Level Estimated
07:39PM 28.3647 40.0015 285° West  Level Estimated
07:40PM 28.3934 39.8818 285° West  Level Estimated
07:41PM 28.4220 39.7620 285° West  Level Estimated
07:42PM 28.4505 39.6422 285° West  Level Estimated
07:43PM 28.4789 39.5223 285° West  Level Estimated
07:44PM 28.5071 39.4023 285° West  Level Estimated
07:45PM 28.5353 39.2823 285° West  Level Estimated
07:46PM 28.5633 39.1622 285° West  Level Estimated
07:47PM 28.5913 39.0420 285° West  Level Estimated
07:48PM 28.6191 38.9218 285° West  Level Estimated
07:49PM 28.6469 38.8015 285° West  Level Estimated
07:50PM 28.6745 38.6812 285° West  Level Estimated
07:51PM 28.7020 38.5608 285° West  Level Estimated
07:52PM 28.7294 38.4403 285° West  Level Estimated
07:53PM 28.7567 38.3198 285° West  Level Estimated
07:54PM 28.7839 38.1992 284° West  Level Estimated
07:55PM 28.8110 38.0785 284° West  Level Estimated
07:56PM 28.8380 37.9578 284° West  Level Estimated
07:57PM 28.8649 37.8370 284° West  Level Estimated
07:58PM 28.8917 37.7161 284° West  Level Estimated
07:59PM 28.9184 37.5952 284° West  Level Estimated
08:00PM 28.9449 37.4743 284° West  Level Estimated
08:01PM 28.9714 37.3532 284° West  Level Estimated
08:02PM 28.9977 37.2321 284° West  Level Estimated
08:03PM 29.0239 37.1110 284° West  Level Estimated
08:04PM 29.0501 36.9897 284° West  Level Estimated
08:05PM 29.0761 36.8685 284° West  Level Estimated
08:06PM 29.1020 36.7471 284° West  Level Estimated
08:07PM 29.1278 36.6257 284° West  Level Estimated
08:08PM 29.1535 36.5043 284° West  Level Estimated
08:09PM 29.1790 36.3828 284° West  Level Estimated
08:10PM 29.2045 36.2612 284° West  Level Estimated
08:11PM 29.2299 36.1395 283° West  Level Estimated
08:12PM 29.2551 36.0178 283° West  Level Estimated
08:13PM 29.2803 35.8960 283° West  Level Estimated
08:14PM 29.3053 35.7742 283° West  Level Estimated
08:15PM 29.3302 35.6523 283° West  Level Estimated
08:16PM 29.3550 35.5304 283° West  Level Estimated
08:17PM 29.3797 35.4084 283° West  Level Estimated
08:18PM 29.4043 35.2863 283° West  Level Estimated
08:19PM 29.4287 35.1642 283° West  Level Estimated
08:20PM 29.4531 35.0420 283° West  Level Estimated
08:21PM 29.4774 34.9198 283° West  Level Estimated
08:22PM 29.5015 34.7975 283° West  Level Estimated
08:23PM 29.5255 34.6751 283° West  Level Estimated
08:24PM 29.5494 34.5527 283° West  Level Estimated
08:25PM 29.5732 34.4302 283° West  Level Estimated
08:26PM 29.5969 34.3077 283° West  Level Estimated
08:27PM 29.6205 34.1851 283° West  Level Estimated
08:28PM 29.6439 34.0625 282° West  Level Estimated
08:29PM 29.6673 33.9398 282° West  Level Estimated
08:30PM 29.6905 33.8170 282° West  Level Estimated
08:31PM 29.7137 33.6942 282° West  Level Estimated
08:32PM 29.7367 33.5713 282° West  Level Estimated
08:33PM 29.7596 33.4484 282° West  Level Estimated
08:34PM 29.7824 33.3254 282° West  Level Estimated
08:35PM 29.8050 33.2024 282° West  Level Estimated
08:36PM 29.8276 33.0793 282° West  Level Estimated
08:37PM 29.8500 32.9561 282° West  Level Estimated
08:38PM 29.8723 32.8329 282° West  Level Estimated
08:39PM 29.8946 32.7097 282° West  Level Estimated
08:40PM 29.9167 32.5863 282° West  Level Estimated
08:41PM 29.9386 32.4630 282° West  Level Estimated
08:42PM 29.9605 32.3396 282° West  Level Estimated
08:43PM 29.9823 32.2161 282° West  Level Estimated
08:44PM 30.0039 32.0925 281° West  Level Estimated
08:45PM 30.0254 31.9690 281° West  Level Estimated
08:46PM 30.0468 31.8453 281° West  Level Estimated
08:47PM 30.0681 31.7216 281° West  Level Estimated
08:48PM 30.0893 31.5979 281° West  Level Estimated
08:49PM 30.1103 31.4741 281° West  Level Estimated
08:50PM 30.1219 31.4056 281° West  Level Estimated
08:51PM 30.1219 31.4056 319° Northwest  Level Estimated
08:52PM 30.1219 31.4056 319° Northwest  Level Estimated
08:53PM 30.1219 31.4056 319° Northwest  Level Estimated
08:54PM 30.1219 31.4056 319° Northwest  Level Estimated
08:55PM 30.1219 31.4056 319° Northwest  Level Estimated
08:56PM 30.1219 31.4056 319° Northwest  Level Estimated
08:57PM 30.1219 31.4056 319° Northwest  Level Estimated
08:58PM 30.1219 31.4056 319° Northwest  Level Estimated
08:59PM 30.1219 31.4056 319° Northwest  Level Estimated
09:00PM 30.1219 31.4056 319° Northwest  Level Estimated
09:01PM 30.1219 31.4056 319° Northwest  Level Estimated
09:02PM 30.1219 31.4056 319° Northwest  Level Estimated
09:03PM 30.1219 31.4056 319° Northwest  Level Estimated
09:04PM 30.1219 31.4056 319° Northwest  Level Estimated
09:05PM 30.1219 31.4056 319° Northwest  Level Estimated
09:06PM 30.1219 31.4056 319° Northwest  Level Estimated
09:07PM 30.1219 31.4056 319° Northwest  Level Estimated
09:08PM 30.1219 31.4056 319° Northwest  Level Estimated
09:09PM 30.1219 31.4056 319° Northwest  Level Estimated
09:10PM 30.1219 31.4056 319° Northwest  Level Estimated
09:11PM 30.1219 31.4056 319° Northwest  Level Estimated
09:12PM 30.1219 31.4056 319° Northwest  Level Estimated
09:13PM 30.1219 31.4056 319° Northwest  Level Estimated
09:14PM 30.1219 31.4056 319° Northwest  Level Estimated
09:15PM 30.1219 31.4056 319° Northwest  Level Estimated
09:16PM 30.1219 31.4056 319° Northwest  Level Estimated
09:17PM 30.1219 31.4056 319° Northwest  Level Estimated
09:18PM 30.1219 31.4056 319° Northwest  Level Estimated
09:19PM 30.1219 31.4056 319° Northwest  Level Estimated
09:20PM 30.1219 31.4056 319° Northwest  Level Estimated
09:21PM 30.1219 31.4056 319° Northwest  Level Estimated
09:22PM 30.1219 31.4056 319° Northwest  Level Estimated
09:23PM 30.1219 31.4056 319° Northwest  Level Estimated
09:24PM 30.1219 31.4056 319° Northwest  Level Estimated
09:25PM 30.1219 31.4056 319° Northwest  Level Estimated
09:26PM 30.1219 31.4056 319° Northwest  Level Estimated
09:27PM 30.1219 31.4056 319° Northwest  Level Estimated
09:28PM 30.1219 31.4056 319° Northwest  Level Estimated
09:29PM 30.1219 31.4056 319° Northwest  Level Estimated
09:30PM 30.1219 31.4056 319° Northwest  Level Estimated
09:31PM 30.1219 31.4056 319° Northwest  Level Estimated
09:32PM 30.1219 31.4056 319° Northwest  Level Estimated
09:33PM 30.1219 31.4056 319° Northwest  Level Estimated
09:34PM 30.1219 31.4056 319° Northwest  Level Estimated
09:35PM 30.1219 31.4056 319° Northwest  Level Estimated
09:36PM 30.1219 31.4056 319° Northwest  Level Estimated
09:37PM 30.1219 31.4056 319° Northwest  Level Estimated
09:38PM 30.1219 31.4056 319° Northwest  Level Estimated
09:39PM 30.1219 31.4056 319° Northwest  Level Estimated
09:40PM 30.1219 31.4056 319° Northwest  Level Estimated
09:41PM 30.1219 31.4056 319° Northwest  Level Estimated
09:42PM 30.1219 31.4056 319° Northwest  Level Estimated
09:43PM 30.1219 31.4056 319° Northwest  Level Estimated
09:44PM 30.1219 31.4056 319° Northwest  Level Estimated
09:45PM 30.1219 31.4056 319° Northwest  Level Estimated
09:46PM 30.1219 31.4056 319° Northwest  Level Estimated
09:47PM 30.1219 31.4056 319° Northwest  Level Estimated
09:48PM 30.1219 31.4056 319° Northwest  Level Estimated
09:49PM 30.1219 31.4056 319° Northwest  Level Estimated
09:50PM 30.1219 31.4056 319° Northwest  Level Estimated
09:51PM 30.1219 31.4056 319° Northwest  Level Estimated
09:52PM 30.1219 31.4056 319° Northwest  Level Estimated
09:53PM 30.1219 31.4056 319° Northwest  Level Estimated
09:54PM 30.1219 31.4056 319° Northwest  Level Estimated
09:55PM 30.1219 31.4056 319° Northwest  Level Estimated
09:56PM 30.1219 31.4056 319° Northwest  Level Estimated
09:57PM 30.1219 31.4056 319° Northwest  Level Estimated
09:58PM 30.1219 31.4056 319° Northwest  Level Estimated
09:59PM 30.1219 31.4056 319° Northwest  Level Estimated
10:00PM 30.1219 31.4056 319° Northwest  Level Estimated
10:01PM 30.1219 31.4056 319° Northwest  Level Estimated
10:02PM 30.1219 31.4056 319° Northwest  Level Estimated
10:03PM 30.1219 31.4056 319° Northwest  Level Estimated
10:04PM 30.1219 31.4056 319° Northwest  Level Estimated
10:05PM 30.1219 31.4056 319° Northwest  Level Estimated
10:06PM 30.1219 31.4056 319° Northwest  Level Estimated
10:07PM 30.1219 31.4056 319° Northwest  Level Estimated
10:08PM 30.1219 31.4056 319° Northwest  Level Estimated
10:09PM 30.1219 31.4056 319° Northwest  Level Estimated
10:10PM 30.1219 31.4056 319° Northwest  Level Estimated
10:11PM 30.1219 31.4056 319° Northwest  Level Estimated
10:12PM 30.1219 31.4056 319° Northwest  Level Estimated
10:13PM 30.1219 31.4056 319° Northwest  Level Estimated
10:14PM 30.1219 31.4056 319° Northwest  Level Estimated
10:15PM 30.1219 31.4056 319° Northwest  Level Estimated
10:16PM 30.1219 31.4056 319° Northwest  Level Estimated
10:17PM 30.1219 31.4056 319° Northwest  Level Estimated
10:18PM 30.1219 31.4056 319° Northwest  Level Estimated
10:19PM 30.1219 31.4056 319° Northwest  Level Estimated
10:20PM 30.1219 31.4056 319° Northwest  Level Estimated
10:21PM 30.1219 31.4056 319° Northwest  Level Estimated
10:22PM 30.1219 31.4056 319° Northwest  Level Estimated
10:23PM 30.1219 31.4056 319° Northwest  Level Estimated
10:24PM 30.1219 31.4056 319° Northwest  Level Estimated
10:25PM 30.1219 31.4056 319° Northwest  Level Estimated
10:26PM 30.1219 31.4056 319° Northwest  Level Estimated
10:27PM 30.1219 31.4056 319° Northwest  Level Estimated
10:28PM 30.1219 31.4056 319° Northwest  Level Estimated
10:29PM 30.1219 31.4056 319° Northwest  Level Estimated
10:30PM 30.1219 31.4056 319° Northwest  Level Estimated
10:31PM 30.1219 31.4056 319° Northwest  Level Estimated
10:32PM 30.1219 31.4056 319° Northwest  Level Estimated
10:33PM 30.1219 31.4056 319° Northwest  Level Estimated
10:34PM 30.1219 31.4056 319° Northwest  Level Estimated
10:35PM 30.1219 31.4056 319° Northwest  Level Estimated
10:36PM 30.1219 31.4056 319° Northwest  Level Estimated
10:37PM 30.1219 31.4056 319° Northwest  Level Estimated
10:38PM 30.1219 31.4056 319° Northwest  Level Estimated
10:39PM 30.1219 31.4056 319° Northwest  Level Estimated
10:40PM 30.1219 31.4056 319° Northwest  Level Estimated
10:41PM 30.1219 31.4056 319° Northwest  Level Estimated
10:42PM 30.1219 31.4056 319° Northwest  Level Estimated
10:43PM 30.1219 31.4056 319° Northwest  Level Estimated
10:44PM 30.1219 31.4056 319° Northwest  Level Estimated
10:45PM 30.1219 31.4056 319° Northwest  Level Estimated
10:46PM 30.1219 31.4056 319° Northwest  Level Estimated
10:47PM 30.1219 31.4056 319° Northwest  Level Estimated
10:48PM 30.1219 31.4056 319° Northwest  Level Estimated
10:49PM 30.1219 31.4056 319° Northwest  Level Estimated
10:50PM 30.1219 31.4056 319° Northwest  Level Estimated
10:51PM 30.1219 31.4056 319° Northwest  Level Estimated
10:52PM 30.1219 31.4056 319° Northwest  Level Estimated
10:53PM 30.1219 31.4056 319° Northwest  Level Estimated
10:54PM 30.1219 31.4056 319° Northwest  Level Estimated
10:55PM 30.1219 31.4056 319° Northwest  Level Estimated
10:56PM 30.1219 31.4056 319° Northwest  Level Estimated
10:57PM 30.1219 31.4056 319° Northwest  Level Estimated
10:58PM 30.1219 31.4056 319° Northwest  Level Estimated
10:59PM 30.1219 31.4056 319° Northwest  Level Estimated
11:00PM 30.1219 31.4056 319° Northwest  Level Estimated
11:01PM 30.1219 31.4056 319° Northwest  Level Estimated
11:02PM 30.1219 31.4056 319° Northwest  Level Estimated
11:03PM 30.1219 31.4056 319° Northwest  Level Estimated
11:04PM 30.1219 31.4056 319° Northwest  Level Estimated
11:05PM 30.1219 31.4056 319° Northwest  Level Estimated
11:06PM 30.1219 31.4056 319° Northwest  Level Estimated
11:07PM 30.1219 31.4056 319° Northwest  Level Estimated
11:08PM 30.1219 31.4056 319° Northwest  Level Estimated
11:09PM 30.1219 31.4056 319° Northwest  Level Estimated
11:10PM 30.1219 31.4056 319° Northwest  Level Estimated
11:11PM 30.1219 31.4056 319° Northwest  Level Estimated
11:12PM 30.1219 31.4056 319° Northwest  Level Estimated
11:13PM 30.1219 31.4056 319° Northwest  Level Estimated
11:14PM 30.1219 31.4056 319° Northwest  Level Estimated
11:15PM 30.1219 31.4056 319° Northwest  Level Estimated
11:16PM 30.1219 31.4056 319° Northwest  Level Estimated
11:17PM 30.1219 31.4056 319° Northwest  Level Estimated
11:18PM 30.1219 31.4056 319° Northwest  Level Estimated
11:19PM 30.1219 31.4056 319° Northwest  Level Estimated
11:20PM 30.1219 31.4056 319° Northwest  Level Estimated
11:21PM 30.1219 31.4056 319° Northwest  Level Estimated
11:22PM 30.1219 31.4056 319° Northwest  Level Estimated
11:23PM 30.1219 31.4056 319° Northwest  Level Estimated
11:24PM 30.1219 31.4056 319° Northwest  Level Estimated
11:25PM 30.1219 31.4056 319° Northwest  Level Estimated
11:26PM 30.1219 31.4056 319° Northwest  Level Estimated
11:27PM 30.1219 31.4056 319° Northwest  Level Estimated
11:28PM 30.1219 31.4056 319° Northwest  Level Estimated
11:29PM 30.1219 31.4056 319° Northwest  Level Estimated
11:30PM 30.1219 31.4056 319° Northwest  Level Estimated
11:31PM 30.1219 31.4056 319° Northwest  Level Estimated
11:32PM 30.1219 31.4056 319° Northwest  Level Estimated
11:33PM 30.1219 31.4056 319° Northwest  Level Estimated
11:34PM 30.1219 31.4056 319° Northwest  Level Estimated
11:35PM 30.1219 31.4056 319° Northwest  Level Estimated
11:36PM 30.1219 31.4056 319° Northwest  Level Estimated
11:37PM 30.1219 31.4056 319° Northwest  Level Estimated
11:38PM 30.1219 31.4056 319° Northwest  Level Estimated
11:39PM 30.1219 31.4056 319° Northwest  Level Estimated
11:40PM 30.1219 31.4056 319° Northwest  Level Estimated
11:41PM 30.1219 31.4056 319° Northwest  Level Estimated
11:42PM 30.1219 31.4056 319° Northwest  Level Estimated
11:43PM 30.1219 31.4056 319° Northwest  Level Estimated
11:44PM 30.1219 31.4056 319° Northwest  Level Estimated
11:45PM 30.1219 31.4056 319° Northwest  Level Estimated
11:46PM 30.1219 31.4056 319° Northwest  Level Estimated
11:47PM 30.1219 31.4056 319° Northwest  Level Estimated
11:48PM 30.1219 31.4056 319° Northwest  Level Estimated
11:49PM 30.1219 31.4056 319° Northwest  Level Estimated
11:50PM 30.1219 31.4056 319° Northwest  Level Estimated
11:51PM 30.1219 31.4056 319° Northwest  Level Estimated
11:52PM 30.1219 31.4056 319° Northwest  Level Estimated
11:53PM 30.1219 31.4056 319° Northwest  Level Estimated
11:54PM 30.1219 31.4056 319° Northwest  Level Estimated
11:55PM 30.1219 31.4056 319° Northwest  Level Estimated
11:56PM 30.1219 31.4056 319° Northwest  Level Estimated
11:57PM 30.1219 31.4056 319° Northwest  Level Estimated
11:58PM 30.1219 31.4056 319° Northwest  Level Estimated
11:59PM 30.1219 31.4056 319° Northwest  Level Estimated
12:01AM 30.1219 31.4056 319° Northwest  Level Estimated
12:01AM 30.1219 31.4056 319° Northwest  Level Estimated
12:03AM 30.1219 31.4056 319° Northwest  Level Estimated
12:03AM 30.1219 31.4056 319° Northwest  Level Estimated
12:04AM 30.1219 31.4056 319° Northwest  Level Estimated
12:04AM 30.1219 31.4056 319° Northwest  Level Estimated
12:05AM 30.1219 31.4056 319° Northwest  Level Estimated
12:06AM 30.1219 31.4056 319° Northwest  Level Estimated
12:07AM 30.1219 31.4056 319° Northwest  Level Estimated
12:08AM 30.1219 31.4056 319° Northwest  Level Estimated
12:09AM 30.1219 31.4056 319° Northwest  Level Estimated
12:10AM 30.1219 31.4056 319° Northwest  Level Estimated
12:11AM 30.1219 31.4056 319° Northwest  Level Estimated
12:12AM 30.1219 31.4056 319° Northwest  Level Estimated
12:13AM 30.1219 31.4056 319° Northwest  Level Estimated
12:14AM 30.1219 31.4056 319° Northwest  Level Estimated
12:15AM 30.1219 31.4056 319° Northwest  Level Estimated
12:16AM 30.1219 31.4056 319° Northwest  Level Estimated
12:17AM 30.1219 31.4056 319° Northwest  Level Estimated
12:18AM 30.1219 31.4056 319° Northwest  Level Estimated
12:19AM 30.1219 31.4056 319° Northwest  Level Estimated
12:20AM 30.1219 31.4056 319° Northwest  Level Estimated
12:21AM 30.1219 31.4056 319° Northwest  Level Estimated
12:22AM 30.1219 31.4056 319° Northwest  Level Estimated
12:23AM 30.1219 31.4056 319° Northwest  Level Estimated
12:24AM 30.1219 31.4056 319° Northwest  Level Estimated
12:25AM 30.1219 31.4056 319° Northwest  Level Estimated
12:26AM 30.1219 31.4056 319° Northwest  Level Estimated
12:27AM 30.1219 31.4056 319° Northwest  Level Estimated
12:28AM 30.1219 31.4056 319° Northwest  Level Estimated
12:29AM 30.1219 31.4056 319° Northwest  Level Estimated
12:30AM 30.1219 31.4056 319° Northwest  Level Estimated
12:31AM 30.1219 31.4056 319° Northwest  Level Estimated
12:32AM 30.1219 31.4056 319° Northwest  Level Estimated
12:33AM 30.1219 31.4056 319° Northwest  Level Estimated
12:34AM 30.1219 31.4056 319° Northwest  Level Estimated
12:35AM 30.1219 31.4056 319° Northwest  Level Estimated
12:36AM 30.1219 31.4056 319° Northwest  Level Estimated
12:37AM 30.1219 31.4056 319° Northwest  Level Estimated
12:38AM 30.1219 31.4056 319° Northwest  Level Estimated
12:39AM 30.1219 31.4056 319° Northwest  Level Estimated
12:40AM 30.1219 31.4056 319° Northwest  Level Estimated
12:41AM 30.1219 31.4056 319° Northwest  Level Estimated
12:42AM 30.1219 31.4056 319° Northwest  Level Estimated
12:43AM 30.1219 31.4056 319° Northwest  Level Estimated
12:44AM 30.1219 31.4056 319° Northwest  Level Estimated
12:45AM 30.1219 31.4056 319° Northwest  Level Estimated
12:46AM 30.1219 31.4056 319° Northwest  Level Estimated
12:47AM 30.1219 31.4056 319° Northwest  Level Estimated
12:48AM 30.1219 31.4056 319° Northwest  Level Estimated
12:49AM 30.1219 31.4056 319° Northwest  Level Estimated
12:50AM 30.1219 31.4056 319° Northwest  Level Estimated
12:51AM 30.1219 31.4056 319° Northwest  Level Estimated
12:52AM 30.1219 31.4056 319° Northwest  Level Estimated
12:53AM 30.1219 31.4056 319° Northwest  Level Estimated
12:54AM 30.1219 31.4056 319° Northwest  Level Estimated
12:55AM 30.1219 31.4056 319° Northwest  Level Estimated
12:56AM 30.1219 31.4056 319° Northwest  Level Estimated
12:57AM 30.1219 31.4056 319° Northwest  Level Estimated
12:58AM 30.1219 31.4056 319° Northwest  Level Estimated
12:59AM 30.1219 31.4056 319° Northwest  Level Estimated
01:00AM 30.1219 31.4056 319° Northwest  Level Estimated
01:01AM 30.1219 31.4056 319° Northwest  Level Estimated
01:02AM 30.1219 31.4056 319° Northwest  Level Estimated
01:03AM 30.1219 31.4056 319° Northwest  Level Estimated
01:04AM 30.1219 31.4056 319° Northwest  Level Estimated
01:05AM 30.1219 31.4056 319° Northwest  Level Estimated
01:06AM 30.1219 31.4056 319° Northwest  Level Estimated
01:07AM 30.1219 31.4056 319° Northwest  Level Estimated
01:08AM 30.1219 31.4056 319° Northwest  Level Estimated
01:09AM 30.1219 31.4056 319° Northwest  Level Estimated
01:10AM 30.1219 31.4056 319° Northwest  Level Estimated
01:11AM 30.1219 31.4056 319° Northwest  Level Estimated
01:12AM 30.1219 31.4056 319° Northwest  Level Estimated
01:13AM 30.1219 31.4056 319° Northwest  Level Estimated
01:14AM 30.1219 31.4056 319° Northwest  Level Estimated
01:15AM 30.1219 31.4056 319° Northwest  Level Estimated
01:16AM 30.1219 31.4056 319° Northwest  Level Estimated
01:17AM 30.1219 31.4056 319° Northwest  Level Estimated
01:18AM 30.1219 31.4056 319° Northwest  Level Estimated
01:19AM 30.1219 31.4056 319° Northwest  Level Estimated
01:20AM 30.1219 31.4056 319° Northwest  Level Estimated
01:21AM 30.1219 31.4056 319° Northwest  Level Estimated
01:22AM 30.1219 31.4056 319° Northwest  Level Estimated
01:23AM 30.1219 31.4056 319° Northwest  Level Estimated
01:24AM 30.1219 31.4056 319° Northwest  Level Estimated
01:25AM 30.1219 31.4056 319° Northwest  Level Estimated
01:26AM 30.1219 31.4056 319° Northwest  Level Estimated
01:27AM 30.1219 31.4056 319° Northwest  Level Estimated
01:28AM 30.1219 31.4056 319° Northwest  Level Estimated
01:29AM 30.1219 31.4056 319° Northwest  Level Estimated
01:30AM 30.1219 31.4056 319° Northwest  Level Estimated
01:31AM 30.1219 31.4056 319° Northwest  Level Estimated
01:32AM 30.1219 31.4056 319° Northwest  Level Estimated
01:33AM 30.1219 31.4056 319° Northwest  Level Estimated
01:34AM 30.1219 31.4056 319° Northwest  Level Estimated
01:35AM 30.1219 31.4056 319° Northwest  Level Estimated
01:36AM 30.1219 31.4056 319° Northwest  Level Estimated
01:37AM 30.1219 31.4056 319° Northwest  Level Estimated
01:38AM 30.1219 31.4056 319° Northwest  Level Estimated
01:39AM 30.1219 31.4056 319° Northwest  Level Estimated
01:40AM 30.1219 31.4056 319° Northwest  Level Estimated
01:41AM 30.1219 31.4056 319° Northwest  Level Estimated
01:42AM 30.1219 31.4056 319° Northwest  Level Estimated
01:43AM 30.1219 31.4056 319° Northwest  Level Estimated
01:44AM 30.1219 31.4056 319° Northwest  Level Estimated
01:45AM 30.1219 31.4056 319° Northwest  Level Estimated
01:46AM 30.1219 31.4056 319° Northwest  Level Estimated
01:47AM 30.1219 31.4056 319° Northwest  Level Estimated
01:48AM 30.1219 31.4056 319° Northwest  Level Estimated
01:49AM 30.1219 31.4056 319° Northwest  Level Estimated
01:50AM 30.1219 31.4056 319° Northwest  Level Estimated
01:51AM 30.1219 31.4056 319° Northwest  Level Estimated
01:52AM 30.1219 31.4056 319° Northwest  Level Estimated
01:53AM 30.1219 31.4056 319° Northwest  Level Estimated
01:54AM 30.1219 31.4056 319° Northwest  Level Estimated
01:55AM 30.1219 31.4056 319° Northwest  Level Estimated
01:56AM 30.1219 31.4056 319° Northwest  Level Estimated
01:57AM 30.1219 31.4056 319° Northwest  Level Estimated
01:58AM 30.1219 31.4056 319° Northwest  Level Estimated
01:59AM 30.1219 31.4056 319° Northwest  Level Estimated
02:00AM 30.1219 31.4056 319° Northwest  Level Estimated
02:01AM 30.1219 31.4056 319° Northwest  Level Estimated
02:02AM 30.1219 31.4056 319° Northwest  Level Estimated
02:03AM 30.1219 31.4056 319° Northwest  Level Estimated
02:04AM 30.1219 31.4056 319° Northwest  Level Estimated
02:05AM 30.1219 31.4056 319° Northwest  Level Estimated
02:06AM 30.1219 31.4056 319° Northwest  Level Estimated
02:07AM 30.1219 31.4056 319° Northwest  Level Estimated
02:08AM 30.1219 31.4056 319° Northwest  Level Estimated
02:09AM 30.1219 31.4056 319° Northwest  Level Estimated
02:10AM 30.1219 31.4056 319° Northwest  Level Estimated
02:11AM 30.1219 31.4056 319° Northwest  Level Estimated
02:12AM 30.1219 31.4056 319° Northwest  Level Estimated
02:13AM 30.1219 31.4056 319° Northwest  Level Estimated
02:14AM 30.1219 31.4056 319° Northwest  Level Estimated
02:15AM 30.1219 31.4056 319° Northwest  Level Estimated
02:16AM 30.1219 31.4056 319° Northwest  Level Estimated
02:17AM 30.1219 31.4056 319° Northwest  Level Estimated
02:18AM 30.1219 31.4056 319° Northwest  Level Estimated
02:19AM 30.1219 31.4056 319° Northwest  Level Estimated
02:20AM 30.1219 31.4056 319° Northwest  Level Estimated
02:21AM 30.1219 31.4056 319° Northwest  Level Estimated
02:22AM 30.1219 31.4056 319° Northwest  Level Estimated
02:23AM 30.1219 31.4056 319° Northwest  Level Estimated
02:24AM 30.1219 31.4056 319° Northwest  Level Estimated
02:25AM 30.1219 31.4056 319° Northwest  Level Estimated
02:26AM 30.1219 31.4056 319° Northwest  Level Estimated
02:27AM 30.1219 31.4056 319° Northwest  Level Estimated
02:28AM 30.1219 31.4056 319° Northwest  Level Estimated
02:29AM 30.1219 31.4056 319° Northwest  Level Estimated
02:30AM 30.1219 31.4056 319° Northwest  Level Estimated
02:31AM 30.1219 31.4056 319° Northwest  Level Estimated
02:32AM 30.1219 31.4056 319° Northwest  Level Estimated
02:33AM 30.1219 31.4056 319° Northwest  Level Estimated
02:34AM 30.1219 31.4056 319° Northwest  Level Estimated
02:35AM 30.1219 31.4056 319° Northwest  Level Estimated
02:36AM 30.1219 31.4056 319° Northwest  Level Estimated
02:37AM 30.1219 31.4056 319° Northwest  Level Estimated
02:38AM 30.1219 31.4056 319° Northwest  Level Estimated
02:39AM 30.1219 31.4056 319° Northwest  Level Estimated
02:40AM 30.1219 31.4056 319° Northwest  Level Estimated
02:41AM 30.1219 31.4056 319° Northwest  Level Estimated
02:42AM 30.1219 31.4056 319° Northwest  Level Estimated
02:43AM 30.1219 31.4056 319° Northwest  Level Estimated
02:44AM 30.1219 31.4056 319° Northwest  Level Estimated
02:45AM 30.1219 31.4056 319° Northwest  Level Estimated
02:46AM 30.1219 31.4056 319° Northwest  Level Estimated
02:47AM 30.1219 31.4056 319° Northwest  Level Estimated
02:48AM 30.1219 31.4056 319° Northwest  Level Estimated
02:49AM 30.1219 31.4056 319° Northwest  Level Estimated
02:50AM 30.1219 31.4056 319° Northwest  Level Estimated
02:51AM 30.1219 31.4056 319° Northwest  Level Estimated
02:52AM 30.1219 31.4056 319° Northwest  Level Estimated
02:53AM 30.1219 31.4056 319° Northwest  Level Estimated
02:54AM 30.1219 31.4056 319° Northwest  Level Estimated
02:55AM 30.1219 31.4056 319° Northwest  Level Estimated
02:56AM 30.1219 31.4056 319° Northwest  Level Estimated
02:57AM 30.1219 31.4056 319° Northwest  Level Estimated
02:58AM 30.1219 31.4056 319° Northwest  Level Estimated
02:59AM 30.1219 31.4056 319° Northwest  Level Estimated
03:00AM 30.1219 31.4056 319° Northwest  Level Estimated
03:01AM 30.1219 31.4056 319° Northwest  Level Estimated
03:02AM 30.1219 31.4056 319° Northwest  Level Estimated
03:03AM 30.1219 31.4056 319° Northwest  Level Estimated
03:04AM 30.1219 31.4056 319° Northwest  Level Estimated
03:05AM 30.1219 31.4056 319° Northwest  Level Estimated
03:06AM 30.1219 31.4056 319° Northwest  Level Estimated
03:07AM 30.1219 31.4056 319° Northwest  Level Estimated
03:08AM 30.1219 31.4056 319° Northwest  Level Estimated
03:09AM 30.1219 31.4056 319° Northwest  Level Estimated
03:10AM 30.1219 31.4056 319° Northwest  Level Estimated
03:11AM 30.1219 31.4056 319° Northwest  Level Estimated
03:12AM 30.1219 31.4056 319° Northwest  Level Estimated
03:13AM 30.1219 31.4056 319° Northwest  Level Estimated
03:14AM 30.1219 31.4056 319° Northwest  Level Estimated
03:15AM 30.1219 31.4056 319° Northwest  Level Estimated
03:16AM 30.1219 31.4056 319° Northwest  Level Estimated
03:17AM 30.1219 31.4056 319° Northwest  Level Estimated
03:18AM 30.1219 31.4056 319° Northwest  Level Estimated
03:19AM 30.1219 31.4056 319° Northwest  Level Estimated
03:20AM 30.1219 31.4056 319° Northwest  Level Estimated
03:21AM 30.1219 31.4056 319° Northwest  Level Estimated
03:22AM 30.1219 31.4056 319° Northwest  Level Estimated
03:23AM 30.1219 31.4056 319° Northwest  Level Estimated
03:24AM 30.1219 31.4056 319° Northwest  Level Estimated
03:25AM 30.1219 31.4056 319° Northwest  Level Estimated
03:26AM 30.1219 31.4056 319° Northwest  Level Estimated
03:27AM 30.1219 31.4056 319° Northwest  Level Estimated
03:28AM 30.1219 31.4056 319° Northwest  Level Estimated
03:29AM 30.1219 31.4056 319° Northwest  Level Estimated
03:30AM 30.1219 31.4056 319° Northwest  Level Estimated
03:31AM 30.1219 31.4056 319° Northwest  Level Estimated
03:32AM 30.1219 31.4056 319° Northwest  Level Estimated
03:33AM 30.1219 31.4056 319° Northwest  Level Estimated
03:34AM 30.1219 31.4056 319° Northwest  Level Estimated
03:35AM 30.1219 31.4056 319° Northwest  Level Estimated
03:36AM 30.1219 31.4056 319° Northwest  Level Estimated
03:37AM 30.1219 31.4056 319° Northwest  Level Estimated
03:38AM 30.1219 31.4056 319° Northwest  Level Estimated
03:39AM 30.1219 31.4056 319° Northwest  Level Estimated
03:40AM 30.1219 31.4056 319° Northwest  Level Estimated
03:41AM 30.1219 31.4056 319° Northwest  Level Estimated
03:42AM 30.1219 31.4056 319° Northwest  Level Estimated
03:43AM 30.1219 31.4056 319° Northwest  Level Estimated
03:44AM 30.1219 31.4056 319° Northwest  Level Estimated
03:45AM 30.1219 31.4056 319° Northwest  Level Estimated
03:46AM 30.1219 31.4056 319° Northwest  Level Estimated
03:47AM 30.1219 31.4056 319° Northwest  Level Estimated
03:48AM 30.1219 31.4056 319° Northwest  Level Estimated
03:49AM 30.1219 31.4056 319° Northwest  Level Estimated
03:50AM 30.1219 31.4056 319° Northwest  Level Estimated
03:51AM 30.1219 31.4056 319° Northwest  Level Estimated
03:52AM 30.1219 31.4056 319° Northwest  Level Estimated
03:53AM 30.1219 31.4056 319° Northwest  Level Estimated
03:54AM 30.1219 31.4056 319° Northwest  Level Estimated
03:55AM 30.1219 31.4056 319° Northwest  Level Estimated
03:56AM 30.1219 31.4056 319° Northwest  Level Estimated
03:57AM 30.1219 31.4056 319° Northwest  Level Estimated
03:58AM 30.1219 31.4056 319° Northwest  Level Estimated
03:59AM 30.1219 31.4056 319° Northwest  Level Estimated
04:00AM 30.1219 31.4056 319° Northwest  Level Estimated
04:01AM 30.1219 31.4056 319° Northwest  Level Estimated
04:02AM 30.1219 31.4056 319° Northwest  Level Estimated
04:03AM 30.1219 31.4056 319° Northwest  Level Estimated
04:04AM 30.1219 31.4056 319° Northwest  Level Estimated
04:05AM 30.1219 31.4056 319° Northwest  Level Estimated
04:06AM 30.1219 31.4056 319° Northwest  Level Estimated
04:07AM 30.1219 31.4056 319° Northwest  Level Estimated
04:08AM 30.1219 31.4056 319° Northwest  Level Estimated
04:09AM 30.1219 31.4056 319° Northwest  Level Estimated
04:10AM 30.1219 31.4056 319° Northwest  Level Estimated
04:11AM 30.1219 31.4056 319° Northwest  Level Estimated
04:12AM 30.1219 31.4056 319° Northwest  Level Estimated
04:13AM 30.1219 31.4056 319° Northwest  Level Estimated
04:14AM 30.1219 31.4056 319° Northwest  Level Estimated
04:15AM 30.1219 31.4056 319° Northwest  Level Estimated
04:16AM 30.1219 31.4056 319° Northwest  Level Estimated
04:17AM 30.1219 31.4056 319° Northwest  Level Estimated
04:18AM 30.1219 31.4056 319° Northwest  Level Estimated
04:19AM 30.1219 31.4056 319° Northwest  Level Estimated
04:20AM 30.1219 31.4056 319° Northwest  Level Estimated
04:21AM 30.1219 31.4056 319° Northwest  Level Estimated
04:22AM 30.1219 31.4056 319° Northwest  Level Estimated
04:23AM 30.1219 31.4056 319° Northwest  Level Estimated
04:24AM 30.1219 31.4056 319° Northwest  Level Estimated
04:25AM 30.1219 31.4056 319° Northwest  Level Estimated
04:26AM 30.1219 31.4056 319° Northwest  Level Estimated
04:27AM 30.1219 31.4056 319° Northwest  Level Estimated
04:28AM 30.1219 31.4056 319° Northwest  Level Estimated
04:29AM 30.1219 31.4056 319° Northwest  Level Estimated
04:30AM 30.1219 31.4056 319° Northwest  Level Estimated
04:31AM 30.1219 31.4056 319° Northwest  Level Estimated
04:32AM 30.1219 31.4056 319° Northwest  Level Estimated
04:33AM 30.1219 31.4056 319° Northwest  Level Estimated
04:34AM 30.1219 31.4056 319° Northwest  Level Estimated
04:35AM 30.1219 31.4056 319° Northwest  Level Estimated
04:36AM 30.1219 31.4056 319° Northwest  Level Estimated
04:37AM 30.1219 31.4056 319° Northwest  Level Estimated
04:38AM 30.1219 31.4056 319° Northwest  Level Estimated
04:39AM 30.1219 31.4056 319° Northwest  Level Estimated
04:40AM 30.1219 31.4056 319° Northwest  Level Estimated
04:41AM 30.1219 31.4056 319° Northwest  Level Estimated
04:42AM 30.1219 31.4056 319° Northwest  Level Estimated
04:43AM 30.1219 31.4056 319° Northwest  Level Estimated
04:44AM 30.1219 31.4056 319° Northwest  Level Estimated
04:45AM 30.1219 31.4056 319° Northwest  Level Estimated
04:46AM 30.1219 31.4056 319° Northwest  Level Estimated
04:47AM 30.1219 31.4056 319° Northwest  Level Estimated
04:48AM 30.1219 31.4056 319° Northwest  Level Estimated
04:49AM 30.1219 31.4056 319° Northwest  Level Estimated
04:50AM 30.1219 31.4056 319° Northwest  Level Estimated
04:51AM 30.1219 31.4056 319° Northwest  Level Estimated
04:52AM 30.1219 31.4056 319° Northwest  Level Estimated
04:53AM 30.1219 31.4056 319° Northwest  Level Estimated
04:54AM 30.1219 31.4056 319° Northwest  Level Estimated
04:55AM 30.1219 31.4056 319° Northwest  Level Estimated
04:56AM 30.1219 31.4056 319° Northwest  Level Estimated
04:57AM 30.1219 31.4056 319° Northwest  Level Estimated
04:58AM 30.1219 31.4056 319° Northwest  Level Estimated
04:59AM 30.1219 31.4056 319° Northwest  Level Estimated
05:00AM 30.1219 31.4056 319° Northwest  Level Estimated
05:01AM 30.1219 31.4056 319° Northwest  Level Estimated
05:02AM 30.1219 31.4056 319° Northwest  Level Estimated
05:03AM 30.1219 31.4056 319° Northwest  Level Estimated
05:04AM 30.1219 31.4056 319° Northwest  Level Estimated
05:05AM 30.1219 31.4056 319° Northwest  Level Estimated
05:06AM 30.1219 31.4056 319° Northwest  Level Estimated
05:07AM 30.1219 31.4056 319° Northwest  Level Estimated
05:08AM 30.1219 31.4056 319° Northwest  Level Estimated
05:09AM 30.1219 31.4056 319° Northwest  Level Estimated
05:10AM 30.1219 31.4056 319° Northwest  Level Estimated
05:11AM 30.1219 31.4056 319° Northwest  Level Estimated
05:12AM 30.1219 31.4056 319° Northwest  Level Estimated
05:13AM 30.1219 31.4056 319° Northwest  Level Estimated
05:14AM 30.1219 31.4056 319° Northwest  Level Estimated
05:15AM 30.1219 31.4056 319° Northwest  Level Estimated
05:16AM 30.1219 31.4056 319° Northwest  Level Estimated
05:17AM 30.1219 31.4056 319° Northwest  Level Estimated
05:18AM 30.1219 31.4056 319° Northwest  Level Estimated
05:19AM 30.1219 31.4056 319° Northwest  Level Estimated
05:20AM 30.1219 31.4056 319° Northwest  Level Estimated
05:21AM 30.1219 31.4056 319° Northwest  Level Estimated
05:22AM 30.1219 31.4056 319° Northwest  Level Estimated
05:23AM 30.1219 31.4056 319° Northwest  Level Estimated
05:24AM 30.1219 31.4056 319° Northwest  Level Estimated
05:25AM 30.1219 31.4056 319° Northwest  Level Estimated
05:26AM 30.1219 31.4056 319° Northwest  Level Estimated
05:27AM 30.1219 31.4056 319° Northwest  Level Estimated
05:28AM 30.1219 31.4056 319° Northwest  Level Estimated
05:29AM 30.1219 31.4056 319° Northwest  Level Estimated
05:30AM 30.1219 31.4056 319° Northwest  Level Estimated
05:31AM 30.1219 31.4056 319° Northwest  Level Estimated
05:32AM 30.1219 31.4056 319° Northwest  Level Estimated
05:33AM 30.1219 31.4056 319° Northwest  Level Estimated
05:34AM 30.1219 31.4056 319° Northwest  Level Estimated
05:35AM 30.1219 31.4056 319° Northwest  Level Estimated
05:36AM 30.1219 31.4056 319° Northwest  Level Estimated
05:37AM 30.1219 31.4056 319° Northwest  Level Estimated
05:38AM 30.1219 31.4056 319° Northwest  Level Estimated
05:39AM 30.1219 31.4056 319° Northwest  Level Estimated
05:40AM 30.1219 31.4056 319° Northwest  Level Estimated
05:41AM 30.1219 31.4056 319° Northwest  Level Estimated
05:42AM 30.1219 31.4056 319° Northwest  Level Estimated
05:43AM 30.1219 31.4056 319° Northwest  Level Estimated
05:44AM 30.1219 31.4056 319° Northwest  Level Estimated
05:45AM 30.1219 31.4056 319° Northwest  Level Estimated
05:46AM 30.1219 31.4056 319° Northwest  Level Estimated
05:47AM 30.1219 31.4056 319° Northwest  Level Estimated
05:48AM 30.1219 31.4056 319° Northwest  Level Estimated
05:49AM 30.1219 31.4056 319° Northwest  Level Estimated
05:50AM 30.1219 31.4056 319° Northwest  Level Estimated
05:51AM 30.1219 31.4056 319° Northwest  Level Estimated
05:52AM 30.1219 31.4056 319° Northwest  Level Estimated
05:53AM 30.1219 31.4056 319° Northwest  Level Estimated
05:54AM 30.1219 31.4056 319° Northwest  Level Estimated
05:55AM 30.1219 31.4056 319° Northwest  Level Estimated
05:56AM 30.1219 31.4056 319° Northwest  Level Estimated
05:57AM 30.1219 31.4056 319° Northwest  Level Estimated
05:58AM 30.1219 31.4056 319° Northwest  Level Estimated
05:59AM 30.1219 31.4056 319° Northwest  Level Estimated
06:00AM 30.1219 31.4056 319° Northwest  Level Estimated
06:01AM 30.1219 31.4056 319° Northwest  Level Estimated
06:02AM 30.1219 31.4056 319° Northwest  Level Estimated
06:03AM 30.1219 31.4056 319° Northwest  Level Estimated
06:04AM 30.1219 31.4056 319° Northwest  Level Estimated
06:05AM 30.1219 31.4056 319° Northwest  Level Estimated
06:06AM 30.1219 31.4056 319° Northwest  Level Estimated
06:07AM 30.1219 31.4056 319° Northwest  Level Estimated
06:08AM 30.1219 31.4056 319° Northwest  Level Estimated
06:09AM 30.1219 31.4056 319° Northwest  Level Estimated
06:10AM 30.1219 31.4056 319° Northwest  Level Estimated
06:11AM 30.1219 31.4056 319° Northwest  Level Estimated
06:12AM 30.1219 31.4056 319° Northwest  Level Estimated
06:13AM 30.1219 31.4056 319° Northwest  Level Estimated
06:14AM 30.1219 31.4056 319° Northwest  Level Estimated
06:15AM 30.1219 31.4056 319° Northwest  Level Estimated
06:16AM 30.1219 31.4056 319° Northwest  Level Estimated
06:17AM 30.1219 31.4056 319° Northwest  Level Estimated
06:18AM 30.1219 31.4056 319° Northwest  Level Estimated
06:19AM 30.1219 31.4056 319° Northwest  Level Estimated
06:20AM 30.1219 31.4056 319° Northwest  Level Estimated
06:21AM 30.1219 31.4056 319° Northwest  Level Estimated
06:22AM 30.1219 31.4056 319° Northwest  Level Estimated
06:23AM 30.1219 31.4056 319° Northwest  Level Estimated
06:24AM 30.1219 31.4056 319° Northwest  Level Estimated
06:25AM 30.1219 31.4056 319° Northwest  Level Estimated
06:26AM 30.1219 31.4056 319° Northwest  Level Estimated
06:27AM 30.1219 31.4056 319° Northwest  Level Estimated
06:28AM 30.1219 31.4056 319° Northwest  Level Estimated
06:29AM 30.1219 31.4056 319° Northwest  Level Estimated
06:30AM 30.1219 31.4056 319° Northwest  Level Estimated
06:31AM 30.1219 31.4056 319° Northwest  Level Estimated
06:32AM 30.1219 31.4056 319° Northwest  Level Estimated
06:33AM 30.1219 31.4056 319° Northwest  Level Estimated
06:34AM 30.1219 31.4056 319° Northwest  Level Estimated
06:35AM 30.1219 31.4056 319° Northwest  Level Estimated
06:36AM 30.1219 31.4056 319° Northwest  Level Estimated
06:37AM 30.1219 31.4056 319° Northwest  Level Estimated
06:38AM 30.1219 31.4056 319° Northwest  Level Estimated
06:39AM 30.1219 31.4056 319° Northwest  Level Estimated
06:40AM 30.1219 31.4056 319° Northwest  Level Estimated
06:41AM 30.1219 31.4056 319° Northwest  Level Estimated
06:42AM 30.1219 31.4056 319° Northwest  Level Estimated
06:43AM 30.1219 31.4056 319° Northwest  Level Estimated
06:44AM 30.1219 31.4056 319° Northwest  Level Estimated
06:45AM 30.1219 31.4056 319° Northwest  Level Estimated
06:46AM 30.1219 31.4056 319° Northwest  Level Estimated
06:47AM 30.1219 31.4056 319° Northwest  Level Estimated
06:48AM 30.1219 31.4056 319° Northwest  Level Estimated
06:49AM 30.1219 31.4056 319° Northwest  Level Estimated
06:50AM 30.1219 31.4056 319° Northwest  Level Estimated
06:51AM 30.1219 31.4056 319° Northwest  Level Estimated
06:52AM 30.1219 31.4056 319° Northwest  Level Estimated
06:53AM 30.1219 31.4056 319° Northwest  Level Estimated
06:54AM 30.1219 31.4056 319° Northwest  Level Estimated
06:55AM 30.1219 31.4056 319° Northwest  Level Estimated
06:56AM 30.1219 31.4056 319° Northwest  Level Estimated
06:57AM 30.1219 31.4056 319° Northwest  Level Estimated
06:58AM 30.1219 31.4056 319° Northwest  Level Estimated
06:59AM 30.1219 31.4056 319° Northwest  Level Estimated
07:00AM 30.1219 31.4056 319° Northwest  Level Estimated
07:01AM 30.1219 31.4056 319° Northwest  Level Estimated
07:02AM 30.1219 31.4056 319° Northwest  Level Estimated
07:03AM 30.1219 31.4056 319° Northwest  Level Estimated
07:04AM 30.1219 31.4056 319° Northwest  Level Estimated
07:05AM 30.1219 31.4056 319° Northwest  Level Estimated
07:06AM 30.1219 31.4056 319° Northwest  Level Estimated
07:07AM 30.1219 31.4056 319° Northwest  Level Estimated
07:08AM 30.1219 31.4056 319° Northwest  Level Estimated
07:09AM 30.1219 31.4056 319° Northwest  Level Estimated
07:10AM 30.1219 31.4056 319° Northwest  Level Estimated
07:11AM 30.1219 31.4056 319° Northwest  Level Estimated
07:12AM 30.1219 31.4056 319° Northwest  Level Estimated
07:13AM 30.1219 31.4056 319° Northwest  Level Estimated
07:14AM 30.1219 31.4056 319° Northwest  Level Estimated
07:15AM 30.1219 31.4056 319° Northwest  Level Estimated
07:16AM 30.1219 31.4056 319° Northwest  Level Estimated
07:17AM 30.1219 31.4056 319° Northwest  Level Estimated
07:18AM 30.1219 31.4056 319° Northwest  Level Estimated
07:19AM 30.1219 31.4056 319° Northwest  Level Estimated
07:20AM 30.1219 31.4056 319° Northwest  Level Estimated
07:21AM 30.1219 31.4056 319° Northwest  Level Estimated
07:22AM 30.1219 31.4056 319° Northwest  Level Estimated
07:23AM 30.1219 31.4056 319° Northwest  Level Estimated
07:24AM 30.1219 31.4056 319° Northwest  Level Estimated
07:25AM 30.1219 31.4056 319° Northwest  Level Estimated
07:26AM 30.1219 31.4056 319° Northwest  Level Estimated
07:27AM 30.1219 31.4056 319° Northwest  Level Estimated
07:28AM 30.1219 31.4056 319° Northwest  Level Estimated
07:29AM 30.1219 31.4056 319° Northwest  Level Estimated
07:30AM 30.1219 31.4056 319° Northwest  Level Estimated
07:31AM 30.1219 31.4056 319° Northwest  Level Estimated
07:32AM 30.1219 31.4056 319° Northwest  Level Estimated
07:33AM 30.1219 31.4056 319° Northwest  Level Estimated
07:34AM 30.1219 31.4056 319° Northwest  Level Estimated
07:35AM 30.1219 31.4056 319° Northwest  Level Estimated
07:36AM 30.1219 31.4056 319° Northwest  Level Estimated
07:37AM 30.1219 31.4056 319° Northwest  Level Estimated
07:38AM 30.1219 31.4056 319° Northwest  Level Estimated
07:39AM 30.1219 31.4056 319° Northwest  Level Estimated
07:40AM 30.1219 31.4056 319° Northwest  Level Estimated
07:41AM 30.1219 31.4056 319° Northwest  Level Estimated
07:42AM 30.1219 31.4056 319° Northwest  Level Estimated
07:43AM 30.1219 31.4056 319° Northwest  Level Estimated
07:44AM 30.1219 31.4056 319° Northwest  Level Estimated
07:45AM 30.1219 31.4056 319° Northwest  Level Estimated
07:46AM 30.1219 31.4056 319° Northwest  Level Estimated
07:47AM 30.1219 31.4056 319° Northwest  Level Estimated
07:48AM 30.1219 31.4056 319° Northwest  Level Estimated
07:49AM 30.1219 31.4056 319° Northwest  Level Estimated
07:50AM 30.1219 31.4056 319° Northwest  Level Estimated
07:51AM 30.1219 31.4056 319° Northwest  Level Estimated
07:52AM 30.1219 31.4056 319° Northwest  Level Estimated
07:53AM 30.1219 31.4056 319° Northwest  Level Estimated
07:54AM 30.1219 31.4056 319° Northwest  Level Estimated
07:55AM 30.1219 31.4056 319° Northwest  Level Estimated
07:56AM 30.1219 31.4056 319° Northwest  Level Estimated
07:57AM 30.1219 31.4056 319° Northwest  Level Estimated
07:58AM 30.1219 31.4056 319° Northwest  Level Estimated
07:59AM 30.1219 31.4056 319° Northwest  Level Estimated
08:00AM 30.1219 31.4056 319° Northwest  Level Estimated
08:01AM 30.1219 31.4056 319° Northwest  Level Estimated
08:02AM 30.1219 31.4056 319° Northwest  Level Estimated
08:03AM 30.1219 31.4056 319° Northwest  Level Estimated
08:04AM 30.1219 31.4056 319° Northwest  Level Estimated
08:05AM 30.1219 31.4056 319° Northwest  Level Estimated
08:06AM 30.1219 31.4056 319° Northwest  Level Estimated
08:07AM 30.1219 31.4056 319° Northwest  Level Estimated
08:08AM 30.1219 31.4056 319° Northwest  Level Estimated
08:09AM 30.1219 31.4056 319° Northwest  Level Estimated
08:10AM 30.1219 31.4056 319° Northwest  Level Estimated
08:11AM 30.1219 31.4056 319° Northwest  Level Estimated
08:12AM 30.1219 31.4056 319° Northwest  Level Estimated
08:13AM 30.1219 31.4056 319° Northwest  Level Estimated
08:14AM 30.1219 31.4056 319° Northwest  Level Estimated
08:15AM 30.1219 31.4056 319° Northwest  Level Estimated
08:16AM 30.1219 31.4056 319° Northwest  Level Estimated
08:17AM 30.1219 31.4056 319° Northwest  Level Estimated
08:18AM 30.1219 31.4056 319° Northwest  Level Estimated
08:19AM 30.1219 31.4056 319° Northwest  Level Estimated
08:20AM 30.1219 31.4056 319° Northwest  Level Estimated
08:21AM 30.1219 31.4056 319° Northwest  Level Estimated
08:22AM 30.1219 31.4056 319° Northwest  Level Estimated
08:23AM 30.1219 31.4056 319° Northwest  Level Estimated
08:24AM 30.1219 31.4056 319° Northwest  Level Estimated
08:25AM 30.1219 31.4056 319° Northwest  Level Estimated
08:26AM 30.1219 31.4056 319° Northwest  Level Estimated
08:27AM 30.1219 31.4056 319° Northwest  Level Estimated
08:28AM 30.1219 31.4056 319° Northwest  Level Estimated
08:29AM 30.1219 31.4056 319° Northwest  Level Estimated
08:30AM 30.1219 31.4056 319° Northwest  Level Estimated
08:31AM 30.1219 31.4056 319° Northwest  Level Estimated
08:32AM 30.1219 31.4056 319° Northwest  Level Estimated
08:33AM 30.1219 31.4056 319° Northwest  Level Estimated
08:34AM 30.1219 31.4056 319° Northwest  Level Estimated
08:35AM 30.1219 31.4056 319° Northwest  Level Estimated
08:36AM 30.1219 31.4056 319° Northwest  Level Estimated
08:37AM 30.1219 31.4056 319° Northwest  Level Estimated
08:38AM 30.1219 31.4056 319° Northwest  Level Estimated
08:39AM 30.1219 31.4056 319° Northwest  Level Estimated
08:40AM 30.1219 31.4056 319° Northwest  Level Estimated
08:41AM 30.1219 31.4056 319° Northwest  Level Estimated
08:42AM 30.1219 31.4056 319° Northwest  Level Estimated
08:43AM 30.1219 31.4056 319° Northwest  Level Estimated
08:44AM 30.1219 31.4056 319° Northwest  Level Estimated
08:45AM 30.1219 31.4056 319° Northwest  Level Estimated
08:46AM 30.1219 31.4056 319° Northwest  Level Estimated
08:47AM 30.1219 31.4056 319° Northwest  Level Estimated
08:48AM 30.1219 31.4056 319° Northwest  Level Estimated
08:49AM 30.1219 31.4056 319° Northwest  Level Estimated
08:50AM 30.1219 31.4056 319° Northwest  Level Estimated
08:51AM 30.1219 31.4056 319° Northwest  Level Estimated
08:52AM 30.1219 31.4056 319° Northwest  Level Estimated
08:53AM 30.1219 31.4056 319° Northwest  Level Estimated
08:54AM 30.1219 31.4056 319° Northwest  Level Estimated
08:55AM 30.1219 31.4056 319° Northwest  Level Estimated
08:56AM 30.1219 31.4056 319° Northwest  Level Estimated
08:57AM 30.1219 31.4056 319° Northwest  Level Estimated
08:58AM 30.1219 31.4056 319° Northwest  Level Estimated
08:59AM 30.1219 31.4056 319° Northwest  Level Estimated
09:00AM 30.1219 31.4056 319° Northwest  Level Estimated
09:01AM 30.1219 31.4056 319° Northwest  Level Estimated
09:02AM 30.1219 31.4056 319° Northwest  Level Estimated
09:03AM 30.1219 31.4056 319° Northwest  Level Estimated
09:04AM 30.1219 31.4056 319° Northwest  Level Estimated
09:05AM 30.1219 31.4056 319° Northwest  Level Estimated
09:06AM 30.1219 31.4056 319° Northwest  Level Estimated
09:07AM 30.1219 31.4056 319° Northwest  Level Estimated
09:08AM 30.1219 31.4056 319° Northwest  Level Estimated
09:09AM 30.1219 31.4056 319° Northwest  Level Estimated
09:10AM 30.1219 31.4056 319° Northwest  Level Estimated
09:11AM 30.1219 31.4056 319° Northwest  Level Estimated
09:12AM 30.1219 31.4056 319° Northwest  Level Estimated
09:13AM 30.1219 31.4056 319° Northwest  Level Estimated
09:14AM 30.1219 31.4056 319° Northwest  Level Estimated
09:15AM 30.1219 31.4056 319° Northwest  Level Estimated
09:16AM 30.1219 31.4056 319° Northwest  Level Estimated
09:17AM 30.1219 31.4056 319° Northwest  Level Estimated
09:18AM 30.1219 31.4056 319° Northwest  Level Estimated
09:19AM 30.1219 31.4056 319° Northwest  Level Estimated
09:20AM 30.1219 31.4056 319° Northwest  Level Estimated
09:21AM 30.1219 31.4056 319° Northwest  Level Estimated
09:22AM 30.1219 31.4056 319° Northwest  Level Estimated
09:23AM 30.1219 31.4056 319° Northwest  Level Estimated
09:24AM 30.1219 31.4056 319° Northwest  Level Estimated
09:25AM 30.1219 31.4056 319° Northwest  Level Estimated
09:26AM 30.1219 31.4056 319° Northwest  Level Estimated
09:27AM 30.1219 31.4056 319° Northwest  Level Estimated
09:28AM 30.1219 31.4056 319° Northwest  Level Estimated
09:29AM 30.1219 31.4056 319° Northwest  Level Estimated
09:30AM 30.1219 31.4056 319° Northwest  Level Estimated
09:31AM 30.1219 31.4056 319° Northwest  Level Estimated
09:32AM 30.1219 31.4056 319° Northwest  Level Estimated
09:33AM 30.1219 31.4056 319° Northwest  Level Estimated
09:34AM 30.1219 31.4056 319° Northwest  Level Estimated
09:35AM 30.1219 31.4056 319° Northwest  Level Estimated
09:36AM 30.1219 31.4056 319° Northwest  Level Estimated
09:37AM 30.1219 31.4056 319° Northwest  Level Estimated
09:38AM 30.1219 31.4056 319° Northwest  Level Estimated
09:39AM 30.1219 31.4056 319° Northwest  Level Estimated
09:40AM 30.1219 31.4056 319° Northwest  Level Estimated
09:41AM 30.1219 31.4056 319° Northwest  Level Estimated
09:42AM 30.1219 31.4056 319° Northwest  Level Estimated
09:43AM 30.1219 31.4056 319° Northwest  Level Estimated
09:44AM 30.1219 31.4056 319° Northwest  Level Estimated
09:45AM 30.1219 31.4056 319° Northwest  Level Estimated
09:46AM 30.1219 31.4056 319° Northwest  Level Estimated
09:47AM 30.1219 31.4056 319° Northwest  Level Estimated
09:48AM 30.1219 31.4056 319° Northwest  Level Estimated
09:49AM 30.1219 31.4056 319° Northwest  Level Estimated
09:50AM 30.1219 31.4056 319° Northwest  Level Estimated
09:51AM 30.1219 31.4056 319° Northwest  Level Estimated
09:52AM 30.1219 31.4056 319° Northwest  Level Estimated
09:53AM 30.1219 31.4056 319° Northwest  Level Estimated
09:54AM 30.1219 31.4056 319° Northwest  Level Estimated
09:55AM 30.1219 31.4056 319° Northwest  Level Estimated
09:56AM 30.1219 31.4056 319° Northwest  Level Estimated
09:57AM 30.1219 31.4056 319° Northwest  Level Estimated
09:58AM 30.1219 31.4056 319° Northwest  Level Estimated
09:59AM 30.1219 31.4056 319° Northwest  Level Estimated
10:00AM 30.1219 31.4056 319° Northwest  Level Estimated
10:01AM 30.1219 31.4056 319° Northwest  Level Estimated
10:02AM 30.1219 31.4056 319° Northwest  Level Estimated
10:03AM 30.1219 31.4056 319° Northwest  Level Estimated
10:04AM 30.1219 31.4056 319° Northwest  Level Estimated
10:05AM 30.1219 31.4056 319° Northwest  Level Estimated
10:06AM 30.1219 31.4056 319° Northwest  Level Estimated
10:07AM 30.1219 31.4056 319° Northwest  Level Estimated
10:08AM 30.1219 31.4056 319° Northwest  Level Estimated
10:09AM 30.1219 31.4056 319° Northwest  Level Estimated
10:10AM 30.1219 31.4056 319° Northwest  Level Estimated
10:11AM 30.1219 31.4056 319° Northwest  Level Estimated
10:12AM 30.1219 31.4056 319° Northwest  Level Estimated
10:13AM 30.1219 31.4056 319° Northwest  Level Estimated
10:14AM 30.1219 31.4056 319° Northwest  Level Estimated
10:15AM 30.1219 31.4056 319° Northwest  Level Estimated
10:16AM 30.1219 31.4056 319° Northwest  Level Estimated
10:17AM 30.1219 31.4056 319° Northwest  Level Estimated
10:18AM 30.1219 31.4056 319° Northwest  Level Estimated
10:19AM 30.1219 31.4056 319° Northwest  Level Estimated
10:20AM 30.1219 31.4056 319° Northwest  Level Estimated
10:21AM 30.1219 31.4056 319° Northwest  Level Estimated
10:22AM 30.1219 31.4056 319° Northwest  Level Estimated
10:23AM 30.1219 31.4056 319° Northwest  Level Estimated
10:24AM 30.1219 31.4056 319° Northwest  Level Estimated
10:25AM 30.1219 31.4056 319° Northwest  Level Estimated
10:26AM 30.1219 31.4056 319° Northwest  Level Estimated
10:27AM 30.1219 31.4056 319° Northwest  Level Estimated
10:28AM 30.1219 31.4056 319° Northwest  Level Estimated
10:29AM 30.1219 31.4056 319° Northwest  Level Estimated
10:30AM 30.1219 31.4056 319° Northwest  Level Estimated
10:31AM 30.1219 31.4056 319° Northwest  Level Estimated
10:32AM 30.1219 31.4056 319° Northwest  Level Estimated
10:33AM 30.1219 31.4056 319° Northwest  Level Estimated
10:34AM 30.1219 31.4056 319° Northwest  Level Estimated
10:35AM 30.1219 31.4056 319° Northwest  Level Estimated
10:36AM 30.1219 31.4056 319° Northwest  Level Estimated
10:37AM 30.1219 31.4056 319° Northwest  Level Estimated
10:38AM 30.1219 31.4056 319° Northwest  Level Estimated
10:39AM 30.1219 31.4056 319° Northwest  Level Estimated
10:40AM 30.1219 31.4056 319° Northwest  Level Estimated
10:41AM 30.1219 31.4056 319° Northwest  Level Estimated
10:42AM 30.1219 31.4056 319° Northwest  Level Estimated
10:43AM 30.1219 31.4056 319° Northwest  Level Estimated
10:44AM 30.1219 31.4056 319° Northwest  Level Estimated
10:45AM 30.1219 31.4056 319° Northwest  Level Estimated
10:46AM 30.1219 31.4056 319° Northwest  Level Estimated
10:47AM 30.1219 31.4056 319° Northwest  Level Estimated
10:48AM 30.1219 31.4056 319° Northwest  Level Estimated
10:49AM 30.1219 31.4056 319° Northwest  Level Estimated
10:50AM 30.1219 31.4056 319° Northwest  Level Estimated
10:51AM 30.1219 31.4056 319° Northwest  Level Estimated
10:52AM 30.1219 31.4056 319° Northwest  Level Estimated
10:53AM 30.1219 31.4056 319° Northwest  Level Estimated
10:54AM 30.1219 31.4056 319° Northwest  Level Estimated
10:55AM 30.1219 31.4056 319° Northwest  Level Estimated
10:56AM 30.1219 31.4056 319° Northwest  Level Estimated
10:57AM 30.1219 31.4056 319° Northwest  Level Estimated
10:58AM 30.1219 31.4056 319° Northwest  Level Estimated
10:59AM 30.1219 31.4056 319° Northwest  Level Estimated
11:00AM 30.1219 31.4056 319° Northwest  Level Estimated
11:01AM 30.1219 31.4056 319° Northwest  Level Estimated
11:02AM 30.1219 31.4056 319° Northwest  Level Estimated
11:03AM 30.1219 31.4056 319° Northwest  Level Estimated
11:04AM 30.1219 31.4056 319° Northwest  Level Estimated
11:05AM 30.1219 31.4056 319° Northwest  Level Estimated
11:06AM 30.1219 31.4056 319° Northwest  Level Estimated
11:07AM 30.1219 31.4056 319° Northwest  Level Estimated
11:08AM 30.1219 31.4056 319° Northwest  Level Estimated
11:09AM 30.1219 31.4056 319° Northwest  Level Estimated
11:10AM 30.1219 31.4056 319° Northwest  Level Estimated
11:11AM 30.1219 31.4056 319° Northwest  Level Estimated
11:12AM 30.1219 31.4056 319° Northwest  Level Estimated
11:13AM 30.1219 31.4056 319° Northwest  Level Estimated
11:14AM 30.1219 31.4056 319° Northwest  Level Estimated
11:15AM 30.1219 31.4056 319° Northwest  Level Estimated
11:16AM 30.1219 31.4056 319° Northwest  Level Estimated
11:17AM 30.1219 31.4056 319° Northwest  Level Estimated
11:18AM 30.1219 31.4056 319° Northwest  Level Estimated
11:19AM 30.1219 31.4056 319° Northwest  Level Estimated
11:20AM 30.1219 31.4056 319° Northwest  Level Estimated
11:21AM 30.1219 31.4056 319° Northwest  Level Estimated
11:22AM 30.1219 31.4056 319° Northwest  Level Estimated
11:23AM 30.1219 31.4056 319° Northwest  Level Estimated
11:24AM 30.1219 31.4056 319° Northwest  Level Estimated
11:25AM 30.1219 31.4056 319° Northwest  Level Estimated
11:26AM 30.1219 31.4056 319° Northwest  Level Estimated
11:27AM 30.1219 31.4056 319° Northwest  Level Estimated
11:28AM 30.1219 31.4056 319° Northwest  Level Estimated
11:29AM 30.1219 31.4056 319° Northwest  Level Estimated
11:30AM 30.1219 31.4056 319° Northwest  Level Estimated
11:31AM 30.1219 31.4056 319° Northwest  Level Estimated
11:32AM 30.1219 31.4056 319° Northwest  Level Estimated
11:33AM 30.1219 31.4056 319° Northwest  Level Estimated
11:34AM 30.1219 31.4056 319° Northwest  Level Estimated
11:35AM 30.1219 31.4056 319° Northwest  Level Estimated
11:36AM 30.1219 31.4056 319° Northwest  Level Estimated
11:37AM 30.1219 31.4056 319° Northwest  Level Estimated
11:38AM 30.1219 31.4056 319° Northwest  Level Estimated
11:39AM 30.1219 31.4056 319° Northwest  Level Estimated
11:40AM 30.1219 31.4056 319° Northwest  Level Estimated
11:41AM 30.1219 31.4056 319° Northwest  Level Estimated
11:42AM 30.1219 31.4056 319° Northwest  Level Estimated
11:43AM 30.1219 31.4056 319° Northwest  Level Estimated
11:44AM 30.1219 31.4056 319° Northwest  Level Estimated
11:45AM 30.1219 31.4056 319° Northwest  Level Estimated
11:46AM 30.1219 31.4056 319° Northwest  Level Estimated
11:47AM 30.1219 31.4056 319° Northwest  Level Estimated
11:48AM 30.1219 31.4056 319° Northwest  Level Estimated
11:49AM 30.1219 31.4056 319° Northwest  Level Estimated
11:50AM 30.1219 31.4056 319° Northwest  Level Estimated
11:51AM 30.1219 31.4056 319° Northwest  Level Estimated
11:52AM 30.1219 31.4056 319° Northwest  Level Estimated
11:53AM 30.1219 31.4056 319° Northwest  Level Estimated
11:54AM 30.1219 31.4056 319° Northwest  Level Estimated
11:55AM 30.1219 31.4056 319° Northwest  Level Estimated
11:56AM 30.1219 31.4056 319° Northwest  Level Estimated
11:57AM 30.1219 31.4056 319° Northwest  Level Estimated
11:58AM 30.1219 31.4056 319° Northwest  Level Estimated
11:59AM 30.1219 31.4056 319° Northwest  Level Estimated
12:00PM 30.1219 31.4056 319° Northwest  Level Estimated
12:01PM 30.1219 31.4056 319° Northwest  Level Estimated
12:02PM 30.1219 31.4056 319° Northwest  Level Estimated
12:03PM 30.1219 31.4056 319° Northwest  Level Estimated
12:04PM 30.1219 31.4056 319° Northwest  Level Estimated
12:05PM 30.1219 31.4056 319° Northwest  Level Estimated
12:06PM 30.1219 31.4056 319° Northwest  Level Estimated
12:07PM 30.1219 31.4056 319° Northwest  Level Estimated
12:08PM 30.1219 31.4056 319° Northwest  Level Estimated
12:09PM 30.1219 31.4056 319° Northwest  Level Estimated
12:10PM 30.1219 31.4056 319° Northwest  Level Estimated
12:11PM 30.1219 31.4056 319° Northwest  Level Estimated
12:12PM 30.1219 31.4056 319° Northwest  Level Estimated
12:13PM 30.1219 31.4056 319° Northwest  Level Estimated
12:14PM 30.1219 31.4056 319° Northwest  Level Estimated
12:15PM 30.1219 31.4056 319° Northwest  Level Estimated
12:16PM 30.1219 31.4056 319° Northwest  Level Estimated
12:17PM 30.1219 31.4056 319° Northwest  Level Estimated
12:18PM 30.1219 31.4056 319° Northwest  Level Estimated
12:19PM 30.1219 31.4056 319° Northwest  Level Estimated
12:20PM 30.1219 31.4056 319° Northwest  Level Estimated
12:21PM 30.1219 31.4056 319° Northwest  Level Estimated
12:22PM 30.1219 31.4056 319° Northwest  Level Estimated
12:23PM 30.1219 31.4056 319° Northwest  Level Estimated
12:24PM 30.1219 31.4056 319° Northwest  Level Estimated
12:25PM 30.1219 31.4056 319° Northwest  Level Estimated
12:26PM 30.1219 31.4056 319° Northwest  Level Estimated
12:27PM 30.1219 31.4056 319° Northwest  Level Estimated
12:28PM 30.1219 31.4056 319° Northwest  Level Estimated
12:29PM 30.1219 31.4056 319° Northwest  Level Estimated
12:30PM 30.1219 31.4056 319° Northwest  Level Estimated
12:31PM 30.1219 31.4056 319° Northwest  Level Estimated
12:32PM 30.1219 31.4056 319° Northwest  Level Estimated
12:33PM 30.1219 31.4056 319° Northwest  Level Estimated
12:34PM 30.1219 31.4056 319° Northwest  Level Estimated
12:35PM 30.1219 31.4056 319° Northwest  Level Estimated
12:36PM 30.1219 31.4056 319° Northwest  Level Estimated
12:37PM 30.1219 31.4056 319° Northwest  Level Estimated
12:38PM 30.1219 31.4056 319° Northwest  Level Estimated
12:39PM 30.1219 31.4056 319° Northwest  Level Estimated
12:40PM 30.1219 31.4056 319° Northwest  Level Estimated
12:41PM 30.1219 31.4056 319° Northwest  Level Estimated
12:42PM 30.1219 31.4056 319° Northwest  Level Estimated
12:43PM 30.1219 31.4056 319° Northwest  Level Estimated
12:44PM 30.1219 31.4056 319° Northwest  Level Estimated
12:45PM 30.1219 31.4056 319° Northwest  Level Estimated
12:46PM 30.1219 31.4056 319° Northwest  Level Estimated
12:47PM 30.1219 31.4056 319° Northwest  Level Estimated
12:48PM 30.1219 31.4056 319° Northwest  Level Estimated
12:49PM 30.1219 31.4056 319° Northwest  Level Estimated
12:50PM 30.1219 31.4056 319° Northwest  Level Estimated
12:51PM 30.1219 31.4056 319° Northwest  Level Estimated
12:52PM 30.1219 31.4056 319° Northwest  Level Estimated
12:53PM 30.1219 31.4056 319° Northwest  Level Estimated
12:54PM 30.1219 31.4056 319° Northwest  Level Estimated
12:55PM 30.1219 31.4056 319° Northwest  Level Estimated
12:56PM 30.1219 31.4056 319° Northwest  Level Estimated
12:57PM 30.1219 31.4056 319° Northwest  Level Estimated
12:58PM 30.1219 31.4056 319° Northwest  Level Estimated
12:59PM 30.1219 31.4056 319° Northwest  Level Estimated
01:00PM 30.1219 31.4056 319° Northwest  Level Estimated
01:01PM 30.1219 31.4056 319° Northwest  Level Estimated
01:02PM 30.1219 31.4056 319° Northwest  Level Estimated
01:03PM 30.1219 31.4056 319° Northwest  Level Estimated
01:04PM 30.1219 31.4056 319° Northwest  Level Estimated
01:05PM 30.1219 31.4056 319° Northwest  Level Estimated
01:06PM 30.1219 31.4056 319° Northwest  Level Estimated
01:07PM 30.1219 31.4056 319° Northwest  Level Estimated
01:08PM 30.1219 31.4056 319° Northwest  Level Estimated
01:09PM 30.1219 31.4056 319° Northwest  Level Estimated
01:10PM 30.1219 31.4056 319° Northwest  Level Estimated
01:11PM 30.1219 31.4056 319° Northwest  Level Estimated
01:12PM 30.1219 31.4056 319° Northwest  Level Estimated
01:13PM 30.1219 31.4056 319° Northwest  Level Estimated
01:14PM 30.1219 31.4056 319° Northwest  Level Estimated
01:15PM 30.1219 31.4056 319° Northwest  Level Estimated
01:16PM 30.1219 31.4056 319° Northwest  Level Estimated
01:17PM 30.1219 31.4056 319° Northwest  Level Estimated
01:18PM 30.1219 31.4056 319° Northwest  Level Estimated
01:19PM 30.1219 31.4056 319° Northwest  Level Estimated
01:20PM 30.1219 31.4056 319° Northwest  Level Estimated
01:21PM 30.1219 31.4056 319° Northwest  Level Estimated
01:22PM 30.1219 31.4056 319° Northwest  Level Estimated
01:23PM 30.1219 31.4056 319° Northwest  Level Estimated
01:24PM 30.1219 31.4056 319° Northwest  Level Estimated
01:25PM 30.1219 31.4056 319° Northwest  Level Estimated
01:26PM 30.1219 31.4056 319° Northwest  Level Estimated
01:27PM 30.1219 31.4056 319° Northwest  Level Estimated
01:28PM 30.1219 31.4056 319° Northwest  Level Estimated
01:29PM 30.1219 31.4056 319° Northwest  Level Estimated
01:30PM 30.1219 31.4056 319° Northwest  Level Estimated
01:31PM 30.1219 31.4056 319° Northwest  Level Estimated
01:32PM 30.1219 31.4056 319° Northwest  Level Estimated
01:33PM 30.1219 31.4056 319° Northwest  Level Estimated
01:34PM 30.1219 31.4056 319° Northwest  Level Estimated
01:35PM 30.1219 31.4056 319° Northwest  Level Estimated
01:36PM 30.1219 31.4056 319° Northwest  Level Estimated
01:37PM 30.1219 31.4056 319° Northwest  Level Estimated
01:38PM 30.1219 31.4056 319° Northwest  Level Estimated
01:39PM 30.1219 31.4056 319° Northwest  Level Estimated
01:40PM 30.1219 31.4056 319° Northwest  Level Estimated
01:41PM 30.1219 31.4056 319° Northwest  Level Estimated
01:42PM 30.1219 31.4056 319° Northwest  Level Estimated
01:43PM 30.1219 31.4056 319° Northwest  Level Estimated
01:44PM 30.1219 31.4056 319° Northwest  Level Estimated
01:45PM 30.1219 31.4056 319° Northwest  Level Estimated
01:46PM 30.1219 31.4056 319° Northwest  Level Estimated
01:47PM 30.1219 31.4056 319° Northwest  Level Estimated
01:48PM 30.1219 31.4056 319° Northwest  Level Estimated
01:49PM 30.1219 31.4056 319° Northwest  Level Estimated
01:50PM 30.1219 31.4056 319° Northwest  Level Estimated
01:51PM 30.1219 31.4056 319° Northwest  Level Estimated
01:52PM 30.1219 31.4056 319° Northwest  Level Estimated
01:53PM 30.1219 31.4056 319° Northwest  Level Estimated
01:54PM 30.1219 31.4056 319° Northwest  Level Estimated
01:55PM 30.1219 31.4056 319° Northwest  Level Estimated
01:56PM 30.1219 31.4056 319° Northwest  Level Estimated
01:57PM 30.1219 31.4056 319° Northwest  Level Estimated
01:58PM 30.1219 31.4056 319° Northwest  Level Estimated
01:59PM 30.1219 31.4056 319° Northwest  Level Estimated
02:00PM 30.1219 31.4056 319° Northwest  Level Estimated
02:01PM 30.1219 31.4056 319° Northwest  Level Estimated
02:02PM 30.1219 31.4056 319° Northwest  Level Estimated
02:03PM 30.1219 31.4056 319° Northwest  Level Estimated
02:04PM 30.1219 31.4056 319° Northwest  Level Estimated
02:05PM 30.1219 31.4056 319° Northwest  Level Estimated
02:06PM 30.1219 31.4056 319° Northwest  Level Estimated
02:07PM 30.1219 31.4056 319° Northwest  Level Estimated
02:08PM 30.1219 31.4056 319° Northwest  Level Estimated
02:09PM 30.1219 31.4056 319° Northwest  Level Estimated
02:10PM 30.1219 31.4056 319° Northwest  Level Estimated
02:11PM 30.1219 31.4056 319° Northwest  Level Estimated
02:12PM 30.1219 31.4056 319° Northwest  Level Estimated
02:13PM 30.1219 31.4056 319° Northwest  Level Estimated
02:14PM 30.1219 31.4056 319° Northwest  Level Estimated
02:15PM 30.1219 31.4056 319° Northwest  Level Estimated
02:16PM 30.1219 31.4056 319° Northwest  Level Estimated
02:17PM 30.1219 31.4056 319° Northwest  Level Estimated
02:18PM 30.1219 31.4056 319° Northwest  Level Estimated
02:19PM 30.1219 31.4056 319° Northwest  Level Estimated
02:20PM 30.1219 31.4056 319° Northwest  Level Estimated
02:21PM 30.1219 31.4056 319° Northwest  Level Estimated
02:22PM 30.1219 31.4056 319° Northwest  Level Estimated
02:23PM 30.1219 31.4056 319° Northwest  Level Estimated
02:24PM 30.1219 31.4056 319° Northwest  Level Estimated
02:25PM 30.1219 31.4056 319° Northwest  Level Estimated
02:26PM 30.1219 31.4056 319° Northwest  Level Estimated
02:27PM 30.1219 31.4056 319° Northwest  Level Estimated
02:28PM 30.1219 31.4056 319° Northwest  Level Estimated
02:29PM 30.1219 31.4056 319° Northwest  Level Estimated
02:30PM 30.1219 31.4056 319° Northwest  Level Estimated
02:31PM 30.1219 31.4056 319° Northwest  Level Estimated
02:32PM 30.1219 31.4056 319° Northwest  Level Estimated
02:33PM 30.1219 31.4056 319° Northwest  Level Estimated
02:34PM 30.1219 31.4056 319° Northwest  Level Estimated
02:35PM 30.1219 31.4056 319° Northwest  Level Estimated
02:36PM 30.1219 31.4056 319° Northwest  Level Estimated
02:37PM 30.1219 31.4056 319° Northwest  Level Estimated
02:38PM 30.1219 31.4056 319° Northwest  Level Estimated
02:39PM 30.1219 31.4056 319° Northwest  Level Estimated
02:40PM 30.1219 31.4056 319° Northwest  Level Estimated
02:41PM 30.1219 31.4056 319° Northwest  Level Estimated
02:42PM 30.1219 31.4056 319° Northwest  Level Estimated
02:43PM 30.1219 31.4056 319° Northwest  Level Estimated
02:44PM 30.1219 31.4056 319° Northwest  Level Estimated
02:45PM 30.1219 31.4056 319° Northwest  Level Estimated
02:46PM 30.1219 31.4056 319° Northwest  Level Estimated
02:47PM 30.1219 31.4056 319° Northwest  Level Estimated
02:48PM 30.1219 31.4056 319° Northwest  Level Estimated
02:49PM 30.1219 31.4056 319° Northwest  Level Estimated
02:50PM 30.1219 31.4056 319° Northwest  Level Estimated
02:51PM 30.1219 31.4056 319° Northwest  Level Estimated
02:52PM 30.1219 31.4056 319° Northwest  Level Estimated
02:53PM 30.1219 31.4056 319° Northwest  Level Estimated
02:54PM 30.1219 31.4056 319° Northwest  Level Estimated
02:55PM 30.1219 31.4056 319° Northwest  Level Estimated
02:56PM 30.1219 31.4056 319° Northwest  Level Estimated
02:57PM 30.1219 31.4056 319° Northwest  Level Estimated
02:58PM 30.1219 31.4056 319° Northwest  Level Estimated
02:59PM 30.1219 31.4056 319° Northwest  Level Estimated
03:00PM 30.1219 31.4056 319° Northwest  Level Estimated
03:01PM 30.1219 31.4056 319° Northwest  Level Estimated
03:02PM 30.1219 31.4056 319° Northwest  Level Estimated
03:03PM 30.1219 31.4056 319° Northwest  Level Estimated
03:04PM 30.1219 31.4056 319° Northwest  Level Estimated
03:05PM 30.1219 31.4056 319° Northwest  Level Estimated
03:06PM 30.1219 31.4056 319° Northwest  Level Estimated
03:07PM 30.1219 31.4056 319° Northwest  Level Estimated
03:08PM 30.1219 31.4056 319° Northwest  Level Estimated
03:09PM 30.1219 31.4056 319° Northwest  Level Estimated
03:10PM 30.1219 31.4056 319° Northwest  Level Estimated
03:11PM 30.1219 31.4056 319° Northwest  Level Estimated
03:12PM 30.1219 31.4056 319° Northwest  Level Estimated
03:13PM 30.1219 31.4056 319° Northwest  Level Estimated
03:14PM 30.1219 31.4056 319° Northwest  Level Estimated
03:15PM 30.1219 31.4056 319° Northwest  Level Estimated
03:16PM 30.1219 31.4056 319° Northwest  Level Estimated
03:17PM 30.1219 31.4056 319° Northwest  Level Estimated
03:18PM 30.1219 31.4056 319° Northwest  Level Estimated
03:19PM 30.1219 31.4056 319° Northwest  Level Estimated
03:20PM 30.1219 31.4056 319° Northwest  Level Estimated
03:21PM 30.1219 31.4056 319° Northwest  Level Estimated
03:22PM 30.1219 31.4056 319° Northwest  Level Estimated
03:23PM 30.1219 31.4056 319° Northwest  Level Estimated
03:24PM 30.1219 31.4056 319° Northwest  Level Estimated
03:25PM 30.1219 31.4056 319° Northwest  Level Estimated
03:26PM 30.1219 31.4056 319° Northwest  Level Estimated
03:27PM 30.1219 31.4056 319° Northwest  Level Estimated
03:28PM 30.1219 31.4056 319° Northwest  Level Estimated
03:29PM 30.1219 31.4056 319° Northwest  Level Estimated
03:30PM 30.1219 31.4056 319° Northwest  Level Estimated
03:31PM 30.1219 31.4056 319° Northwest  Level Estimated
03:32PM 30.1219 31.4056 319° Northwest  Level Estimated
03:33PM 30.1219 31.4056 319° Northwest  Level Estimated
03:34PM 30.1219 31.4056 319° Northwest  Level Estimated
03:35PM 30.1219 31.4056 319° Northwest  Level Estimated
03:36PM 30.1219 31.4056 319° Northwest  Level Estimated
03:37PM 30.1219 31.4056 319° Northwest  Level Estimated
03:38PM 30.1219 31.4056 319° Northwest  Level Estimated
03:39PM 30.1219 31.4056 319° Northwest  Level Estimated
03:40PM 30.1219 31.4056 319° Northwest  Level Estimated
03:41PM 30.1219 31.4056 319° Northwest  Level Estimated
03:42PM 30.1219 31.4056 319° Northwest  Level Estimated
03:43PM 30.1219 31.4056 319° Northwest  Level Estimated
03:44PM 30.1219 31.4056 319° Northwest  Level Estimated
03:45PM 30.1219 31.4056 319° Northwest  Level Estimated
03:46PM 30.1219 31.4056 319° Northwest  Level Estimated
03:47PM 30.1219 31.4056 319° Northwest  Level Estimated
03:48PM 30.1219 31.4056 319° Northwest  Level Estimated
03:49PM 30.1219 31.4056 319° Northwest  Level Estimated
03:50PM 30.1219 31.4056 319° Northwest  Level Estimated
03:51PM 30.1219 31.4056 319° Northwest  Level Estimated
03:52PM 30.1219 31.4056 319° Northwest  Level Estimated
03:53PM 30.1219 31.4056 319° Northwest  Level Estimated
03:54PM 30.1219 31.4056 319° Northwest  Level Estimated
03:55PM 30.1219 31.4056 319° Northwest  Level Estimated
03:56PM 30.1219 31.4056 319° Northwest  Level Estimated
03:57PM 30.1219 31.4056 319° Northwest  Level Estimated
03:58PM 30.1219 31.4056 319° Northwest  Level Estimated
03:59PM 30.1219 31.4056 319° Northwest  Level Estimated
04:00PM 30.1219 31.4056 319° Northwest  Level Estimated
04:01PM 30.1219 31.4056 319° Northwest  Level Estimated
04:02PM 30.1219 31.4056 319° Northwest  Level Estimated
04:03PM 30.1219 31.4056 319° Northwest  Level Estimated
04:04PM 30.1219 31.4056 319° Northwest  Level Estimated
04:05PM 30.1219 31.4056 319° Northwest  Level Estimated
04:06PM 30.1219 31.4056 319° Northwest  Level Estimated
04:07PM 30.1219 31.4056 319° Northwest  Level Estimated
04:08PM 30.1219 31.4056 319° Northwest  Level Estimated
04:09PM 30.1219 31.4056 319° Northwest  Level Estimated
04:10PM 30.1219 31.4056 319° Northwest  Level Estimated
04:11PM 30.1219 31.4056 319° Northwest  Level Estimated
04:12PM 30.1219 31.4056 319° Northwest  Level Estimated
04:13PM 30.1219 31.4056 319° Northwest  Level Estimated
04:14PM 30.1219 31.4056 319° Northwest  Level Estimated
04:15PM 30.1219 31.4056 319° Northwest  Level Estimated
04:16PM 30.1219 31.4056 319° Northwest  Level Estimated
04:17PM 30.1219 31.4056 319° Northwest  Level Estimated
04:18PM 30.1219 31.4056 319° Northwest  Level Estimated
04:19PM 30.1219 31.4056 319° Northwest  Level Estimated
04:20PM 30.1219 31.4056 319° Northwest  Level Estimated
04:21PM 30.1219 31.4056 319° Northwest  Level Estimated
04:22PM 30.1219 31.4056 319° Northwest  Level Estimated
04:23PM 30.1219 31.4056 319° Northwest  Level Estimated
04:24PM 30.1219 31.4056 319° Northwest  Level Estimated
04:25PM 30.1219 31.4056 319° Northwest  Level Estimated
04:26PM 30.1219 31.4056 319° Northwest  Level Estimated
04:27PM 30.1219 31.4056 319° Northwest  Level Estimated
04:28PM 30.1219 31.4056 319° Northwest  Level Estimated
04:29PM 30.1219 31.4056 319° Northwest  Level Estimated
04:30PM 30.1219 31.4056 319° Northwest  Level Estimated
04:31PM 30.1219 31.4056 319° Northwest  Level Estimated
04:32PM 30.1219 31.4056 319° Northwest  Level Estimated
04:33PM 30.1219 31.4056 319° Northwest  Level Estimated
04:34PM 30.1219 31.4056 319° Northwest  Level Estimated
04:35PM 30.1219 31.4056 319° Northwest  Level Estimated
04:36PM 30.1219 31.4056 319° Northwest  Level Estimated
04:37PM 30.1219 31.4056 319° Northwest  Level Estimated
04:38PM 30.1219 31.4056 319° Northwest  Level Estimated
04:39PM 30.1219 31.4056 319° Northwest  Level Estimated
04:40PM 30.1219 31.4056 319° Northwest  Level Estimated
04:41PM 30.1219 31.4056 319° Northwest  Level Estimated
04:42PM 30.1219 31.4056 319° Northwest  Level Estimated
04:43PM 30.1219 31.4056 319° Northwest  Level Estimated
04:44PM 30.1219 31.4056 319° Northwest  Level Estimated
04:45PM 30.1219 31.4056 319° Northwest  Level Estimated
04:46PM 30.1219 31.4056 319° Northwest  Level Estimated
04:47PM 30.1219 31.4056 319° Northwest  Level Estimated
04:48PM 30.1219 31.4056 319° Northwest  Level Estimated
04:49PM 30.1219 31.4056 319° Northwest  Level Estimated
04:50PM 30.1219 31.4056 319° Northwest  Level Estimated
04:51PM 30.1219 31.4056 319° Northwest  Level Estimated
04:52PM 30.1219 31.4056 319° Northwest  Level Estimated
04:53PM 30.1219 31.4056 319° Northwest  Level Estimated
04:54PM 30.1219 31.4056 319° Northwest  Level Estimated
04:55PM 30.1219 31.4056 319° Northwest  Level Estimated
04:56PM 30.1219 31.4056 319° Northwest  Level Estimated
04:57PM 30.1219 31.4056 319° Northwest  Level Estimated
04:58PM 30.1219 31.4056 319° Northwest  Level Estimated
04:59PM 30.1219 31.4056 319° Northwest  Level Estimated
05:00PM 30.1219 31.4056 319° Northwest  Level Estimated
05:01PM 30.1219 31.4056 319° Northwest  Level Estimated
05:02PM 30.1219 31.4056 319° Northwest  Level Estimated
05:03PM 30.1219 31.4056 319° Northwest  Level Estimated
05:04PM 30.1219 31.4056 319° Northwest  Level Estimated
05:05PM 30.1219 31.4056 319° Northwest  Level Estimated
05:06PM 30.1219 31.4056 319° Northwest  Level Estimated